<?xml version="1.0" encoding="UTF-8" standalone="no" ?>
<gpx xmlns="http://www.topografix.com/GPX/1/1" xmlns:xsi="http://www.w3.org/2001/XMLSchema-instance" xsi:schemaLocation="http://www.topografix.com/GPX/1/1 http://www.topografix.com/GPX/1/1/gpx.xsd" version="1.1" creator="VisuGPX - https://www.visugpx.com">
  <metadata>
    <name>sortie du 17/03/2019</name>
    <desc><![CDATA[sortie à 4 au nord d'artix. très sympa]]></desc>
  </metadata>
  <trk>
    <name><![CDATA[Tracé actuel: 17 MARS 2019 08:54]]></name>
    <trkseg>
      <trkpt lat="43.40477" lon="-0.56678">
        <ele>136.64</ele>
        <time>2019-03-17T07:54:37Z</time>
      </trkpt>
      <trkpt lat="43.40476" lon="-0.56675">
        <ele>137.13</ele>
        <time>2019-03-17T07:55:02Z</time>
      </trkpt>
      <trkpt lat="43.40476" lon="-0.56676">
        <ele>135.2</ele>
        <time>2019-03-17T07:55:31Z</time>
      </trkpt>
      <trkpt lat="43.40475" lon="-0.56677">
        <ele>135.68</ele>
        <time>2019-03-17T07:55:53Z</time>
      </trkpt>
      <trkpt lat="43.40477" lon="-0.56677">
        <ele>136.16</ele>
        <time>2019-03-17T07:56:22Z</time>
      </trkpt>
      <trkpt lat="43.40476" lon="-0.56675">
        <ele>136.16</ele>
        <time>2019-03-17T07:56:32Z</time>
      </trkpt>
      <trkpt lat="43.4045" lon="-0.56684">
        <ele>136.64</ele>
        <time>2019-03-17T07:56:49Z</time>
      </trkpt>
      <trkpt lat="43.40446" lon="-0.56681">
        <ele>136.64</ele>
        <time>2019-03-17T07:56:52Z</time>
      </trkpt>
      <trkpt lat="43.40444" lon="-0.56678">
        <ele>136.64</ele>
        <time>2019-03-17T07:56:53Z</time>
      </trkpt>
      <trkpt lat="43.40442" lon="-0.56675">
        <ele>136.16</ele>
        <time>2019-03-17T07:56:54Z</time>
      </trkpt>
      <trkpt lat="43.40441" lon="-0.56672">
        <ele>136.64</ele>
        <time>2019-03-17T07:56:55Z</time>
      </trkpt>
      <trkpt lat="43.40441" lon="-0.56669">
        <ele>136.64</ele>
        <time>2019-03-17T07:56:56Z</time>
      </trkpt>
      <trkpt lat="43.4044" lon="-0.56665">
        <ele>136.64</ele>
        <time>2019-03-17T07:56:57Z</time>
      </trkpt>
      <trkpt lat="43.40429" lon="-0.56616">
        <ele>135.68</ele>
        <time>2019-03-17T07:57:11Z</time>
      </trkpt>
      <trkpt lat="43.40393" lon="-0.56569">
        <ele>135.68</ele>
        <time>2019-03-17T07:57:26Z</time>
      </trkpt>
      <trkpt lat="43.40361" lon="-0.56529">
        <ele>136.16</ele>
        <time>2019-03-17T07:57:38Z</time>
      </trkpt>
      <trkpt lat="43.40313" lon="-0.56462">
        <ele>137.61</ele>
        <time>2019-03-17T07:57:56Z</time>
      </trkpt>
      <trkpt lat="43.40281" lon="-0.56388">
        <ele>137.13</ele>
        <time>2019-03-17T07:58:12Z</time>
      </trkpt>
      <trkpt lat="43.40257" lon="-0.56352">
        <ele>137.13</ele>
        <time>2019-03-17T07:58:23Z</time>
      </trkpt>
      <trkpt lat="43.40254" lon="-0.56353">
        <ele>137.13</ele>
        <time>2019-03-17T07:58:24Z</time>
      </trkpt>
      <trkpt lat="43.40251" lon="-0.56355">
        <ele>137.13</ele>
        <time>2019-03-17T07:58:25Z</time>
      </trkpt>
      <trkpt lat="43.40249" lon="-0.56357">
        <ele>137.13</ele>
        <time>2019-03-17T07:58:26Z</time>
      </trkpt>
      <trkpt lat="43.40248" lon="-0.5636">
        <ele>137.13</ele>
        <time>2019-03-17T07:58:27Z</time>
      </trkpt>
      <trkpt lat="43.40246" lon="-0.56362">
        <ele>137.13</ele>
        <time>2019-03-17T07:58:28Z</time>
      </trkpt>
      <trkpt lat="43.40245" lon="-0.56364">
        <ele>137.13</ele>
        <time>2019-03-17T07:58:29Z</time>
      </trkpt>
      <trkpt lat="43.40242" lon="-0.56367">
        <ele>137.13</ele>
        <time>2019-03-17T07:58:32Z</time>
      </trkpt>
      <trkpt lat="43.4024" lon="-0.56363">
        <ele>137.61</ele>
        <time>2019-03-17T07:58:35Z</time>
      </trkpt>
      <trkpt lat="43.40242" lon="-0.5636">
        <ele>137.61</ele>
        <time>2019-03-17T07:58:36Z</time>
      </trkpt>
      <trkpt lat="43.40243" lon="-0.56358">
        <ele>137.61</ele>
        <time>2019-03-17T07:58:37Z</time>
      </trkpt>
      <trkpt lat="43.40265" lon="-0.56319">
        <ele>136.64</ele>
        <time>2019-03-17T07:58:46Z</time>
      </trkpt>
      <trkpt lat="43.40271" lon="-0.56311">
        <ele>136.64</ele>
        <time>2019-03-17T07:58:48Z</time>
      </trkpt>
      <trkpt lat="43.40274" lon="-0.56306">
        <ele>136.64</ele>
        <time>2019-03-17T07:58:49Z</time>
      </trkpt>
      <trkpt lat="43.40278" lon="-0.56297">
        <ele>136.64</ele>
        <time>2019-03-17T07:58:51Z</time>
      </trkpt>
      <trkpt lat="43.40279" lon="-0.56291">
        <ele>136.64</ele>
        <time>2019-03-17T07:58:52Z</time>
      </trkpt>
      <trkpt lat="43.40281" lon="-0.56287">
        <ele>136.64</ele>
        <time>2019-03-17T07:58:53Z</time>
      </trkpt>
      <trkpt lat="43.40316" lon="-0.56232">
        <ele>136.16</ele>
        <time>2019-03-17T07:59:07Z</time>
      </trkpt>
      <trkpt lat="43.40342" lon="-0.56179">
        <ele>136.16</ele>
        <time>2019-03-17T07:59:19Z</time>
      </trkpt>
      <trkpt lat="43.4038" lon="-0.56118">
        <ele>135.68</ele>
        <time>2019-03-17T07:59:33Z</time>
      </trkpt>
      <trkpt lat="43.40383" lon="-0.56115">
        <ele>136.16</ele>
        <time>2019-03-17T07:59:34Z</time>
      </trkpt>
      <trkpt lat="43.40441" lon="-0.56077">
        <ele>136.16</ele>
        <time>2019-03-17T07:59:49Z</time>
      </trkpt>
      <trkpt lat="43.40488" lon="-0.56036">
        <ele>136.64</ele>
        <time>2019-03-17T08:00:04Z</time>
      </trkpt>
      <trkpt lat="43.40488" lon="-0.56031">
        <ele>136.64</ele>
        <time>2019-03-17T08:00:05Z</time>
      </trkpt>
      <trkpt lat="43.40478" lon="-0.55936">
        <ele>136.64</ele>
        <time>2019-03-17T08:00:22Z</time>
      </trkpt>
      <trkpt lat="43.40467" lon="-0.55847">
        <ele>137.61</ele>
        <time>2019-03-17T08:00:41Z</time>
      </trkpt>
      <trkpt lat="43.40441" lon="-0.55803">
        <ele>137.61</ele>
        <time>2019-03-17T08:00:53Z</time>
      </trkpt>
      <trkpt lat="43.40377" lon="-0.5574">
        <ele>139.05</ele>
        <time>2019-03-17T08:01:14Z</time>
      </trkpt>
      <trkpt lat="43.40333" lon="-0.55688">
        <ele>138.09</ele>
        <time>2019-03-17T08:01:30Z</time>
      </trkpt>
      <trkpt lat="43.40327" lon="-0.55615">
        <ele>138.09</ele>
        <time>2019-03-17T08:01:44Z</time>
      </trkpt>
      <trkpt lat="43.40324" lon="-0.55602">
        <ele>138.09</ele>
        <time>2019-03-17T08:01:47Z</time>
      </trkpt>
      <trkpt lat="43.40321" lon="-0.556">
        <ele>138.09</ele>
        <time>2019-03-17T08:01:48Z</time>
      </trkpt>
      <trkpt lat="43.40318" lon="-0.55599">
        <ele>138.09</ele>
        <time>2019-03-17T08:01:49Z</time>
      </trkpt>
      <trkpt lat="43.40296" lon="-0.55598">
        <ele>138.57</ele>
        <time>2019-03-17T08:01:55Z</time>
      </trkpt>
      <trkpt lat="43.40292" lon="-0.55597">
        <ele>138.57</ele>
        <time>2019-03-17T08:01:56Z</time>
      </trkpt>
      <trkpt lat="43.40218" lon="-0.5559">
        <ele>139.05</ele>
        <time>2019-03-17T08:02:15Z</time>
      </trkpt>
      <trkpt lat="43.40167" lon="-0.55587">
        <ele>139.05</ele>
        <time>2019-03-17T08:02:29Z</time>
      </trkpt>
      <trkpt lat="43.40128" lon="-0.55584">
        <ele>139.05</ele>
        <time>2019-03-17T08:02:42Z</time>
      </trkpt>
      <trkpt lat="43.40125" lon="-0.55588">
        <ele>139.05</ele>
        <time>2019-03-17T08:02:43Z</time>
      </trkpt>
      <trkpt lat="43.40124" lon="-0.55591">
        <ele>139.05</ele>
        <time>2019-03-17T08:02:44Z</time>
      </trkpt>
      <trkpt lat="43.40123" lon="-0.55595">
        <ele>139.53</ele>
        <time>2019-03-17T08:02:45Z</time>
      </trkpt>
      <trkpt lat="43.40122" lon="-0.556">
        <ele>139.53</ele>
        <time>2019-03-17T08:02:46Z</time>
      </trkpt>
      <trkpt lat="43.40104" lon="-0.55696">
        <ele>140.01</ele>
        <time>2019-03-17T08:03:00Z</time>
      </trkpt>
      <trkpt lat="43.40092" lon="-0.55736">
        <ele>140.49</ele>
        <time>2019-03-17T08:03:09Z</time>
      </trkpt>
      <trkpt lat="43.40091" lon="-0.55736">
        <ele>140.49</ele>
        <time>2019-03-17T08:03:10Z</time>
      </trkpt>
      <trkpt lat="43.40089" lon="-0.55736">
        <ele>140.49</ele>
        <time>2019-03-17T08:03:11Z</time>
      </trkpt>
      <trkpt lat="43.40087" lon="-0.55736">
        <ele>140.49</ele>
        <time>2019-03-17T08:03:12Z</time>
      </trkpt>
      <trkpt lat="43.40086" lon="-0.55733">
        <ele>140.49</ele>
        <time>2019-03-17T08:03:13Z</time>
      </trkpt>
      <trkpt lat="43.40085" lon="-0.5573">
        <ele>140.49</ele>
        <time>2019-03-17T08:03:14Z</time>
      </trkpt>
      <trkpt lat="43.40085" lon="-0.55726">
        <ele>140.49</ele>
        <time>2019-03-17T08:03:15Z</time>
      </trkpt>
      <trkpt lat="43.40085" lon="-0.55721">
        <ele>140.97</ele>
        <time>2019-03-17T08:03:16Z</time>
      </trkpt>
      <trkpt lat="43.40085" lon="-0.55716">
        <ele>140.49</ele>
        <time>2019-03-17T08:03:17Z</time>
      </trkpt>
      <trkpt lat="43.40096" lon="-0.55607">
        <ele>142.89</ele>
        <time>2019-03-17T08:03:35Z</time>
      </trkpt>
      <trkpt lat="43.40116" lon="-0.55484">
        <ele>144.34</ele>
        <time>2019-03-17T08:03:55Z</time>
      </trkpt>
      <trkpt lat="43.40135" lon="-0.55378">
        <ele>146.26</ele>
        <time>2019-03-17T08:04:12Z</time>
      </trkpt>
      <trkpt lat="43.40155" lon="-0.55271">
        <ele>146.26</ele>
        <time>2019-03-17T08:04:28Z</time>
      </trkpt>
      <trkpt lat="43.40188" lon="-0.55089">
        <ele>141.93</ele>
        <time>2019-03-17T08:04:49Z</time>
      </trkpt>
      <trkpt lat="43.40224" lon="-0.54963">
        <ele>141.45</ele>
        <time>2019-03-17T08:05:05Z</time>
      </trkpt>
      <trkpt lat="43.40259" lon="-0.54863">
        <ele>142.41</ele>
        <time>2019-03-17T08:05:20Z</time>
      </trkpt>
      <trkpt lat="43.40306" lon="-0.54728">
        <ele>143.85</ele>
        <time>2019-03-17T08:05:41Z</time>
      </trkpt>
      <trkpt lat="43.40344" lon="-0.54618">
        <ele>146.26</ele>
        <time>2019-03-17T08:05:59Z</time>
      </trkpt>
      <trkpt lat="43.40384" lon="-0.54542">
        <ele>147.22</ele>
        <time>2019-03-17T08:06:13Z</time>
      </trkpt>
      <trkpt lat="43.40388" lon="-0.54537">
        <ele>147.7</ele>
        <time>2019-03-17T08:06:14Z</time>
      </trkpt>
      <trkpt lat="43.40435" lon="-0.54443">
        <ele>148.66</ele>
        <time>2019-03-17T08:06:31Z</time>
      </trkpt>
      <trkpt lat="43.40456" lon="-0.54324">
        <ele>150.1</ele>
        <time>2019-03-17T08:06:49Z</time>
      </trkpt>
      <trkpt lat="43.40479" lon="-0.54228">
        <ele>152.03</ele>
        <time>2019-03-17T08:07:05Z</time>
      </trkpt>
      <trkpt lat="43.40503" lon="-0.54119">
        <ele>152.99</ele>
        <time>2019-03-17T08:07:24Z</time>
      </trkpt>
      <trkpt lat="43.40521" lon="-0.54037">
        <ele>153.47</ele>
        <time>2019-03-17T08:07:41Z</time>
      </trkpt>
      <trkpt lat="43.40534" lon="-0.53969">
        <ele>153.95</ele>
        <time>2019-03-17T08:07:55Z</time>
      </trkpt>
      <trkpt lat="43.40551" lon="-0.53875">
        <ele>154.43</ele>
        <time>2019-03-17T08:08:15Z</time>
      </trkpt>
      <trkpt lat="43.40551" lon="-0.53859">
        <ele>155.39</ele>
        <time>2019-03-17T08:08:19Z</time>
      </trkpt>
      <trkpt lat="43.40548" lon="-0.53856">
        <ele>155.39</ele>
        <time>2019-03-17T08:08:20Z</time>
      </trkpt>
      <trkpt lat="43.40545" lon="-0.53854">
        <ele>155.39</ele>
        <time>2019-03-17T08:08:21Z</time>
      </trkpt>
      <trkpt lat="43.40541" lon="-0.53853">
        <ele>154.91</ele>
        <time>2019-03-17T08:08:22Z</time>
      </trkpt>
      <trkpt lat="43.40537" lon="-0.53852">
        <ele>154.91</ele>
        <time>2019-03-17T08:08:23Z</time>
      </trkpt>
      <trkpt lat="43.40473" lon="-0.53846">
        <ele>155.39</ele>
        <time>2019-03-17T08:08:38Z</time>
      </trkpt>
      <trkpt lat="43.40427" lon="-0.5385">
        <ele>155.87</ele>
        <time>2019-03-17T08:08:50Z</time>
      </trkpt>
      <trkpt lat="43.40356" lon="-0.53867">
        <ele>153.47</ele>
        <time>2019-03-17T08:09:05Z</time>
      </trkpt>
      <trkpt lat="43.40278" lon="-0.53892">
        <ele>154.91</ele>
        <time>2019-03-17T08:09:23Z</time>
      </trkpt>
      <trkpt lat="43.40258" lon="-0.53898">
        <ele>154.91</ele>
        <time>2019-03-17T08:09:28Z</time>
      </trkpt>
      <trkpt lat="43.40249" lon="-0.53898">
        <ele>155.39</ele>
        <time>2019-03-17T08:09:30Z</time>
      </trkpt>
      <trkpt lat="43.40192" lon="-0.53887">
        <ele>157.31</ele>
        <time>2019-03-17T08:09:46Z</time>
      </trkpt>
      <trkpt lat="43.40175" lon="-0.53889">
        <ele>156.35</ele>
        <time>2019-03-17T08:09:50Z</time>
      </trkpt>
      <trkpt lat="43.4017" lon="-0.53887">
        <ele>155.87</ele>
        <time>2019-03-17T08:09:51Z</time>
      </trkpt>
      <trkpt lat="43.40166" lon="-0.53884">
        <ele>155.87</ele>
        <time>2019-03-17T08:09:52Z</time>
      </trkpt>
      <trkpt lat="43.40164" lon="-0.53879">
        <ele>155.87</ele>
        <time>2019-03-17T08:09:53Z</time>
      </trkpt>
      <trkpt lat="43.40163" lon="-0.53873">
        <ele>156.35</ele>
        <time>2019-03-17T08:09:54Z</time>
      </trkpt>
      <trkpt lat="43.40163" lon="-0.53869">
        <ele>156.83</ele>
        <time>2019-03-17T08:09:55Z</time>
      </trkpt>
      <trkpt lat="43.40163" lon="-0.53865">
        <ele>157.31</ele>
        <time>2019-03-17T08:09:56Z</time>
      </trkpt>
      <trkpt lat="43.40174" lon="-0.53802">
        <ele>160.2</ele>
        <time>2019-03-17T08:10:13Z</time>
      </trkpt>
      <trkpt lat="43.40182" lon="-0.53742">
        <ele>165.48</ele>
        <time>2019-03-17T08:10:31Z</time>
      </trkpt>
      <trkpt lat="43.40203" lon="-0.53691">
        <ele>174.14</ele>
        <time>2019-03-17T08:10:50Z</time>
      </trkpt>
      <trkpt lat="43.40212" lon="-0.53653">
        <ele>177.98</ele>
        <time>2019-03-17T08:11:04Z</time>
      </trkpt>
      <trkpt lat="43.40205" lon="-0.53613">
        <ele>183.27</ele>
        <time>2019-03-17T08:11:21Z</time>
      </trkpt>
      <trkpt lat="43.40198" lon="-0.53574">
        <ele>188.56</ele>
        <time>2019-03-17T08:11:38Z</time>
      </trkpt>
      <trkpt lat="43.40197" lon="-0.53565">
        <ele>188.56</ele>
        <time>2019-03-17T08:11:42Z</time>
      </trkpt>
      <trkpt lat="43.40197" lon="-0.53563">
        <ele>188.56</ele>
        <time>2019-03-17T08:11:43Z</time>
      </trkpt>
      <trkpt lat="43.40198" lon="-0.53562">
        <ele>188.56</ele>
        <time>2019-03-17T08:11:44Z</time>
      </trkpt>
      <trkpt lat="43.402" lon="-0.53561">
        <ele>188.56</ele>
        <time>2019-03-17T08:11:45Z</time>
      </trkpt>
      <trkpt lat="43.40201" lon="-0.53561">
        <ele>189.04</ele>
        <time>2019-03-17T08:11:46Z</time>
      </trkpt>
      <trkpt lat="43.40202" lon="-0.53562">
        <ele>189.04</ele>
        <time>2019-03-17T08:11:47Z</time>
      </trkpt>
      <trkpt lat="43.40203" lon="-0.53563">
        <ele>189.52</ele>
        <time>2019-03-17T08:11:48Z</time>
      </trkpt>
      <trkpt lat="43.40204" lon="-0.53564">
        <ele>190</ele>
        <time>2019-03-17T08:11:49Z</time>
      </trkpt>
      <trkpt lat="43.40204" lon="-0.53565">
        <ele>190.48</ele>
        <time>2019-03-17T08:11:50Z</time>
      </trkpt>
      <trkpt lat="43.40205" lon="-0.53567">
        <ele>190.48</ele>
        <time>2019-03-17T08:11:51Z</time>
      </trkpt>
      <trkpt lat="43.40225" lon="-0.53583">
        <ele>195.28</ele>
        <time>2019-03-17T08:12:06Z</time>
      </trkpt>
      <trkpt lat="43.40239" lon="-0.53595">
        <ele>196.73</ele>
        <time>2019-03-17T08:12:18Z</time>
      </trkpt>
      <trkpt lat="43.40255" lon="-0.53603">
        <ele>201.53</ele>
        <time>2019-03-17T08:12:31Z</time>
      </trkpt>
      <trkpt lat="43.40276" lon="-0.53622">
        <ele>205.86</ele>
        <time>2019-03-17T08:12:46Z</time>
      </trkpt>
      <trkpt lat="43.40295" lon="-0.5364">
        <ele>207.3</ele>
        <time>2019-03-17T08:13:01Z</time>
      </trkpt>
      <trkpt lat="43.40299" lon="-0.53641">
        <ele>203.94</ele>
        <time>2019-03-17T08:13:36Z</time>
      </trkpt>
      <trkpt lat="43.40303" lon="-0.53639">
        <ele>205.38</ele>
        <time>2019-03-17T08:14:00Z</time>
      </trkpt>
      <trkpt lat="43.4032" lon="-0.53624">
        <ele>206.82</ele>
        <time>2019-03-17T08:14:11Z</time>
      </trkpt>
      <trkpt lat="43.40362" lon="-0.53592">
        <ele>209.22</ele>
        <time>2019-03-17T08:14:24Z</time>
      </trkpt>
      <trkpt lat="43.40366" lon="-0.53589">
        <ele>209.22</ele>
        <time>2019-03-17T08:14:25Z</time>
      </trkpt>
      <trkpt lat="43.40369" lon="-0.53585">
        <ele>209.22</ele>
        <time>2019-03-17T08:14:26Z</time>
      </trkpt>
      <trkpt lat="43.40372" lon="-0.53582">
        <ele>209.22</ele>
        <time>2019-03-17T08:14:27Z</time>
      </trkpt>
      <trkpt lat="43.40375" lon="-0.53577">
        <ele>209.22</ele>
        <time>2019-03-17T08:14:28Z</time>
      </trkpt>
      <trkpt lat="43.40377" lon="-0.53572">
        <ele>209.22</ele>
        <time>2019-03-17T08:14:29Z</time>
      </trkpt>
      <trkpt lat="43.40383" lon="-0.5356">
        <ele>208.26</ele>
        <time>2019-03-17T08:14:31Z</time>
      </trkpt>
      <trkpt lat="43.40385" lon="-0.53553">
        <ele>208.26</ele>
        <time>2019-03-17T08:14:32Z</time>
      </trkpt>
      <trkpt lat="43.40386" lon="-0.53546">
        <ele>207.78</ele>
        <time>2019-03-17T08:14:33Z</time>
      </trkpt>
      <trkpt lat="43.40387" lon="-0.5354">
        <ele>207.3</ele>
        <time>2019-03-17T08:14:34Z</time>
      </trkpt>
      <trkpt lat="43.40386" lon="-0.53534">
        <ele>207.3</ele>
        <time>2019-03-17T08:14:35Z</time>
      </trkpt>
      <trkpt lat="43.40386" lon="-0.53529">
        <ele>207.3</ele>
        <time>2019-03-17T08:14:36Z</time>
      </trkpt>
      <trkpt lat="43.40386" lon="-0.53524">
        <ele>207.78</ele>
        <time>2019-03-17T08:14:37Z</time>
      </trkpt>
      <trkpt lat="43.40387" lon="-0.5352">
        <ele>207.78</ele>
        <time>2019-03-17T08:14:38Z</time>
      </trkpt>
      <trkpt lat="43.40387" lon="-0.53517">
        <ele>208.26</ele>
        <time>2019-03-17T08:14:39Z</time>
      </trkpt>
      <trkpt lat="43.40388" lon="-0.53514">
        <ele>208.26</ele>
        <time>2019-03-17T08:14:40Z</time>
      </trkpt>
      <trkpt lat="43.40389" lon="-0.53511">
        <ele>208.74</ele>
        <time>2019-03-17T08:14:41Z</time>
      </trkpt>
      <trkpt lat="43.404" lon="-0.53467">
        <ele>208.74</ele>
        <time>2019-03-17T08:14:51Z</time>
      </trkpt>
      <trkpt lat="43.40401" lon="-0.53461">
        <ele>208.26</ele>
        <time>2019-03-17T08:14:52Z</time>
      </trkpt>
      <trkpt lat="43.40401" lon="-0.53455">
        <ele>207.78</ele>
        <time>2019-03-17T08:14:53Z</time>
      </trkpt>
      <trkpt lat="43.404" lon="-0.53441">
        <ele>206.34</ele>
        <time>2019-03-17T08:14:55Z</time>
      </trkpt>
      <trkpt lat="43.40399" lon="-0.53434">
        <ele>205.86</ele>
        <time>2019-03-17T08:14:56Z</time>
      </trkpt>
      <trkpt lat="43.40395" lon="-0.53411">
        <ele>204.9</ele>
        <time>2019-03-17T08:14:59Z</time>
      </trkpt>
      <trkpt lat="43.40395" lon="-0.53403">
        <ele>204.42</ele>
        <time>2019-03-17T08:15:00Z</time>
      </trkpt>
      <trkpt lat="43.40395" lon="-0.53396">
        <ele>204.42</ele>
        <time>2019-03-17T08:15:01Z</time>
      </trkpt>
      <trkpt lat="43.40401" lon="-0.53348">
        <ele>204.9</ele>
        <time>2019-03-17T08:15:11Z</time>
      </trkpt>
      <trkpt lat="43.40401" lon="-0.53309">
        <ele>203.94</ele>
        <time>2019-03-17T08:15:16Z</time>
      </trkpt>
      <trkpt lat="43.40399" lon="-0.53301">
        <ele>203.46</ele>
        <time>2019-03-17T08:15:17Z</time>
      </trkpt>
      <trkpt lat="43.40396" lon="-0.53294">
        <ele>203.46</ele>
        <time>2019-03-17T08:15:18Z</time>
      </trkpt>
      <trkpt lat="43.40388" lon="-0.53258">
        <ele>201.53</ele>
        <time>2019-03-17T08:15:26Z</time>
      </trkpt>
      <trkpt lat="43.40378" lon="-0.53214">
        <ele>201.53</ele>
        <time>2019-03-17T08:15:38Z</time>
      </trkpt>
      <trkpt lat="43.40374" lon="-0.53173">
        <ele>203.94</ele>
        <time>2019-03-17T08:15:51Z</time>
      </trkpt>
      <trkpt lat="43.40373" lon="-0.53153">
        <ele>204.9</ele>
        <time>2019-03-17T08:15:59Z</time>
      </trkpt>
      <trkpt lat="43.40373" lon="-0.53148">
        <ele>205.38</ele>
        <time>2019-03-17T08:16:01Z</time>
      </trkpt>
      <trkpt lat="43.40373" lon="-0.53146">
        <ele>204.9</ele>
        <time>2019-03-17T08:16:02Z</time>
      </trkpt>
      <trkpt lat="43.40373" lon="-0.53143">
        <ele>205.38</ele>
        <time>2019-03-17T08:16:03Z</time>
      </trkpt>
      <trkpt lat="43.40374" lon="-0.53141">
        <ele>205.38</ele>
        <time>2019-03-17T08:16:04Z</time>
      </trkpt>
      <trkpt lat="43.40374" lon="-0.53138">
        <ele>205.38</ele>
        <time>2019-03-17T08:16:05Z</time>
      </trkpt>
      <trkpt lat="43.40376" lon="-0.53094">
        <ele>210.67</ele>
        <time>2019-03-17T08:16:20Z</time>
      </trkpt>
      <trkpt lat="43.40366" lon="-0.53048">
        <ele>213.55</ele>
        <time>2019-03-17T08:16:31Z</time>
      </trkpt>
      <trkpt lat="43.4036" lon="-0.53026">
        <ele>210.67</ele>
        <time>2019-03-17T08:16:35Z</time>
      </trkpt>
      <trkpt lat="43.40358" lon="-0.53018">
        <ele>209.7</ele>
        <time>2019-03-17T08:16:36Z</time>
      </trkpt>
      <trkpt lat="43.40354" lon="-0.53">
        <ele>207.3</ele>
        <time>2019-03-17T08:16:38Z</time>
      </trkpt>
      <trkpt lat="43.40349" lon="-0.52983">
        <ele>205.38</ele>
        <time>2019-03-17T08:16:40Z</time>
      </trkpt>
      <trkpt lat="43.40348" lon="-0.52974">
        <ele>204.42</ele>
        <time>2019-03-17T08:16:41Z</time>
      </trkpt>
      <trkpt lat="43.40344" lon="-0.52879">
        <ele>198.65</ele>
        <time>2019-03-17T08:16:51Z</time>
      </trkpt>
      <trkpt lat="43.40344" lon="-0.5287">
        <ele>198.17</ele>
        <time>2019-03-17T08:16:52Z</time>
      </trkpt>
      <trkpt lat="43.40342" lon="-0.52855">
        <ele>197.21</ele>
        <time>2019-03-17T08:16:54Z</time>
      </trkpt>
      <trkpt lat="43.40341" lon="-0.52848">
        <ele>196.73</ele>
        <time>2019-03-17T08:16:55Z</time>
      </trkpt>
      <trkpt lat="43.40338" lon="-0.52795">
        <ele>195.28</ele>
        <time>2019-03-17T08:17:04Z</time>
      </trkpt>
      <trkpt lat="43.4034" lon="-0.52762">
        <ele>195.77</ele>
        <time>2019-03-17T08:17:11Z</time>
      </trkpt>
      <trkpt lat="43.40342" lon="-0.52758">
        <ele>195.77</ele>
        <time>2019-03-17T08:17:12Z</time>
      </trkpt>
      <trkpt lat="43.40345" lon="-0.52755">
        <ele>196.25</ele>
        <time>2019-03-17T08:17:13Z</time>
      </trkpt>
      <trkpt lat="43.40348" lon="-0.52752">
        <ele>196.25</ele>
        <time>2019-03-17T08:17:14Z</time>
      </trkpt>
      <trkpt lat="43.40349" lon="-0.52748">
        <ele>195.77</ele>
        <time>2019-03-17T08:17:15Z</time>
      </trkpt>
      <trkpt lat="43.4035" lon="-0.52743">
        <ele>195.77</ele>
        <time>2019-03-17T08:17:16Z</time>
      </trkpt>
      <trkpt lat="43.40349" lon="-0.52738">
        <ele>195.28</ele>
        <time>2019-03-17T08:17:17Z</time>
      </trkpt>
      <trkpt lat="43.40349" lon="-0.52733">
        <ele>194.32</ele>
        <time>2019-03-17T08:17:18Z</time>
      </trkpt>
      <trkpt lat="43.40348" lon="-0.52726">
        <ele>193.84</ele>
        <time>2019-03-17T08:17:19Z</time>
      </trkpt>
      <trkpt lat="43.40347" lon="-0.52719">
        <ele>192.88</ele>
        <time>2019-03-17T08:17:20Z</time>
      </trkpt>
      <trkpt lat="43.40346" lon="-0.52712">
        <ele>192.4</ele>
        <time>2019-03-17T08:17:21Z</time>
      </trkpt>
      <trkpt lat="43.40346" lon="-0.52704">
        <ele>191.44</ele>
        <time>2019-03-17T08:17:22Z</time>
      </trkpt>
      <trkpt lat="43.40348" lon="-0.52696">
        <ele>190.96</ele>
        <time>2019-03-17T08:17:23Z</time>
      </trkpt>
      <trkpt lat="43.4035" lon="-0.52688">
        <ele>190.48</ele>
        <time>2019-03-17T08:17:24Z</time>
      </trkpt>
      <trkpt lat="43.40353" lon="-0.52674">
        <ele>189.52</ele>
        <time>2019-03-17T08:17:26Z</time>
      </trkpt>
      <trkpt lat="43.40354" lon="-0.52667">
        <ele>188.56</ele>
        <time>2019-03-17T08:17:27Z</time>
      </trkpt>
      <trkpt lat="43.40354" lon="-0.52659">
        <ele>187.59</ele>
        <time>2019-03-17T08:17:28Z</time>
      </trkpt>
      <trkpt lat="43.40354" lon="-0.5265">
        <ele>186.63</ele>
        <time>2019-03-17T08:17:29Z</time>
      </trkpt>
      <trkpt lat="43.40353" lon="-0.52642">
        <ele>185.67</ele>
        <time>2019-03-17T08:17:30Z</time>
      </trkpt>
      <trkpt lat="43.40351" lon="-0.52635">
        <ele>184.71</ele>
        <time>2019-03-17T08:17:31Z</time>
      </trkpt>
      <trkpt lat="43.40349" lon="-0.52628">
        <ele>183.75</ele>
        <time>2019-03-17T08:17:32Z</time>
      </trkpt>
      <trkpt lat="43.40346" lon="-0.52622">
        <ele>182.79</ele>
        <time>2019-03-17T08:17:33Z</time>
      </trkpt>
      <trkpt lat="43.40344" lon="-0.52614">
        <ele>181.83</ele>
        <time>2019-03-17T08:17:34Z</time>
      </trkpt>
      <trkpt lat="43.40342" lon="-0.52608">
        <ele>180.87</ele>
        <time>2019-03-17T08:17:35Z</time>
      </trkpt>
      <trkpt lat="43.40341" lon="-0.52601">
        <ele>180.38</ele>
        <time>2019-03-17T08:17:36Z</time>
      </trkpt>
      <trkpt lat="43.4034" lon="-0.52595">
        <ele>179.9</ele>
        <time>2019-03-17T08:17:37Z</time>
      </trkpt>
      <trkpt lat="43.40333" lon="-0.52559">
        <ele>178.46</ele>
        <time>2019-03-17T08:17:46Z</time>
      </trkpt>
      <trkpt lat="43.40331" lon="-0.52556">
        <ele>178.46</ele>
        <time>2019-03-17T08:17:47Z</time>
      </trkpt>
      <trkpt lat="43.40329" lon="-0.52553">
        <ele>178.94</ele>
        <time>2019-03-17T08:17:48Z</time>
      </trkpt>
      <trkpt lat="43.40327" lon="-0.5255">
        <ele>179.42</ele>
        <time>2019-03-17T08:17:49Z</time>
      </trkpt>
      <trkpt lat="43.40325" lon="-0.52547">
        <ele>179.42</ele>
        <time>2019-03-17T08:17:50Z</time>
      </trkpt>
      <trkpt lat="43.40324" lon="-0.52543">
        <ele>179.9</ele>
        <time>2019-03-17T08:17:51Z</time>
      </trkpt>
      <trkpt lat="43.40323" lon="-0.5254">
        <ele>180.38</ele>
        <time>2019-03-17T08:17:52Z</time>
      </trkpt>
      <trkpt lat="43.40322" lon="-0.52536">
        <ele>180.38</ele>
        <time>2019-03-17T08:17:53Z</time>
      </trkpt>
      <trkpt lat="43.40311" lon="-0.52503">
        <ele>183.27</ele>
        <time>2019-03-17T08:18:04Z</time>
      </trkpt>
      <trkpt lat="43.40295" lon="-0.52467">
        <ele>184.23</ele>
        <time>2019-03-17T08:18:18Z</time>
      </trkpt>
      <trkpt lat="43.40294" lon="-0.52457">
        <ele>183.75</ele>
        <time>2019-03-17T08:18:20Z</time>
      </trkpt>
      <trkpt lat="43.40292" lon="-0.52451">
        <ele>184.23</ele>
        <time>2019-03-17T08:18:21Z</time>
      </trkpt>
      <trkpt lat="43.40289" lon="-0.52447">
        <ele>184.23</ele>
        <time>2019-03-17T08:18:22Z</time>
      </trkpt>
      <trkpt lat="43.40286" lon="-0.52442">
        <ele>184.23</ele>
        <time>2019-03-17T08:18:23Z</time>
      </trkpt>
      <trkpt lat="43.40284" lon="-0.52439">
        <ele>184.71</ele>
        <time>2019-03-17T08:18:24Z</time>
      </trkpt>
      <trkpt lat="43.40282" lon="-0.52436">
        <ele>184.71</ele>
        <time>2019-03-17T08:18:25Z</time>
      </trkpt>
      <trkpt lat="43.40276" lon="-0.52404">
        <ele>184.23</ele>
        <time>2019-03-17T08:18:36Z</time>
      </trkpt>
      <trkpt lat="43.40294" lon="-0.52378">
        <ele>187.11</ele>
        <time>2019-03-17T08:18:46Z</time>
      </trkpt>
      <trkpt lat="43.40305" lon="-0.52361">
        <ele>189.04</ele>
        <time>2019-03-17T08:18:57Z</time>
      </trkpt>
      <trkpt lat="43.40307" lon="-0.52353">
        <ele>188.56</ele>
        <time>2019-03-17T08:19:07Z</time>
      </trkpt>
      <trkpt lat="43.40308" lon="-0.52342">
        <ele>189.52</ele>
        <time>2019-03-17T08:19:14Z</time>
      </trkpt>
      <trkpt lat="43.40304" lon="-0.52315">
        <ele>193.36</ele>
        <time>2019-03-17T08:19:28Z</time>
      </trkpt>
      <trkpt lat="43.40304" lon="-0.52295">
        <ele>195.77</ele>
        <time>2019-03-17T08:19:42Z</time>
      </trkpt>
      <trkpt lat="43.40303" lon="-0.52292">
        <ele>193.36</ele>
        <time>2019-03-17T08:20:02Z</time>
      </trkpt>
      <trkpt lat="43.40302" lon="-0.5229">
        <ele>195.28</ele>
        <time>2019-03-17T08:20:16Z</time>
      </trkpt>
      <trkpt lat="43.403" lon="-0.52286">
        <ele>193.84</ele>
        <time>2019-03-17T08:20:29Z</time>
      </trkpt>
      <trkpt lat="43.40299" lon="-0.5229">
        <ele>190</ele>
        <time>2019-03-17T08:20:46Z</time>
      </trkpt>
      <trkpt lat="43.403" lon="-0.52288">
        <ele>190.48</ele>
        <time>2019-03-17T08:21:02Z</time>
      </trkpt>
      <trkpt lat="43.40293" lon="-0.52273">
        <ele>191.44</ele>
        <time>2019-03-17T08:21:15Z</time>
      </trkpt>
      <trkpt lat="43.40281" lon="-0.52248">
        <ele>196.25</ele>
        <time>2019-03-17T08:21:32Z</time>
      </trkpt>
      <trkpt lat="43.40272" lon="-0.5223">
        <ele>197.69</ele>
        <time>2019-03-17T08:21:43Z</time>
      </trkpt>
      <trkpt lat="43.40265" lon="-0.52207">
        <ele>202.01</ele>
        <time>2019-03-17T08:21:55Z</time>
      </trkpt>
      <trkpt lat="43.40257" lon="-0.52179">
        <ele>205.86</ele>
        <time>2019-03-17T08:22:10Z</time>
      </trkpt>
      <trkpt lat="43.40248" lon="-0.52147">
        <ele>205.86</ele>
        <time>2019-03-17T08:22:25Z</time>
      </trkpt>
      <trkpt lat="43.40243" lon="-0.52117">
        <ele>208.26</ele>
        <time>2019-03-17T08:22:39Z</time>
      </trkpt>
      <trkpt lat="43.40242" lon="-0.52084">
        <ele>213.07</ele>
        <time>2019-03-17T08:22:55Z</time>
      </trkpt>
      <trkpt lat="43.40242" lon="-0.5205">
        <ele>214.51</ele>
        <time>2019-03-17T08:23:11Z</time>
      </trkpt>
      <trkpt lat="43.40242" lon="-0.52048">
        <ele>214.99</ele>
        <time>2019-03-17T08:23:12Z</time>
      </trkpt>
      <trkpt lat="43.40243" lon="-0.52039">
        <ele>215.95</ele>
        <time>2019-03-17T08:23:16Z</time>
      </trkpt>
      <trkpt lat="43.40241" lon="-0.51991">
        <ele>218.36</ele>
        <time>2019-03-17T08:23:36Z</time>
      </trkpt>
      <trkpt lat="43.4024" lon="-0.51963">
        <ele>219.32</ele>
        <time>2019-03-17T08:23:50Z</time>
      </trkpt>
      <trkpt lat="43.4024" lon="-0.51931">
        <ele>222.68</ele>
        <time>2019-03-17T08:24:05Z</time>
      </trkpt>
      <trkpt lat="43.4024" lon="-0.51901">
        <ele>223.16</ele>
        <time>2019-03-17T08:24:19Z</time>
      </trkpt>
      <trkpt lat="43.40239" lon="-0.51898">
        <ele>223.16</ele>
        <time>2019-03-17T08:24:20Z</time>
      </trkpt>
      <trkpt lat="43.40239" lon="-0.51871">
        <ele>223.16</ele>
        <time>2019-03-17T08:24:35Z</time>
      </trkpt>
      <trkpt lat="43.40239" lon="-0.51841">
        <ele>224.61</ele>
        <time>2019-03-17T08:24:48Z</time>
      </trkpt>
      <trkpt lat="43.40241" lon="-0.51809">
        <ele>227.97</ele>
        <time>2019-03-17T08:25:01Z</time>
      </trkpt>
      <trkpt lat="43.40241" lon="-0.51807">
        <ele>227.97</ele>
        <time>2019-03-17T08:25:02Z</time>
      </trkpt>
      <trkpt lat="43.40241" lon="-0.51793">
        <ele>228.93</ele>
        <time>2019-03-17T08:25:08Z</time>
      </trkpt>
      <trkpt lat="43.40241" lon="-0.51785">
        <ele>229.41</ele>
        <time>2019-03-17T08:25:11Z</time>
      </trkpt>
      <trkpt lat="43.40241" lon="-0.51772">
        <ele>229.89</ele>
        <time>2019-03-17T08:25:16Z</time>
      </trkpt>
      <trkpt lat="43.40243" lon="-0.51746">
        <ele>231.81</ele>
        <time>2019-03-17T08:25:28Z</time>
      </trkpt>
      <trkpt lat="43.40242" lon="-0.51737">
        <ele>234.7</ele>
        <time>2019-03-17T08:25:32Z</time>
      </trkpt>
      <trkpt lat="43.4024" lon="-0.51721">
        <ele>236.14</ele>
        <time>2019-03-17T08:25:40Z</time>
      </trkpt>
      <trkpt lat="43.40241" lon="-0.51681">
        <ele>240.47</ele>
        <time>2019-03-17T08:25:56Z</time>
      </trkpt>
      <trkpt lat="43.40245" lon="-0.51645">
        <ele>245.27</ele>
        <time>2019-03-17T08:26:11Z</time>
      </trkpt>
      <trkpt lat="43.40254" lon="-0.5162">
        <ele>249.12</ele>
        <time>2019-03-17T08:26:23Z</time>
      </trkpt>
      <trkpt lat="43.40229" lon="-0.51575">
        <ele>251.52</ele>
        <time>2019-03-17T08:26:45Z</time>
      </trkpt>
      <trkpt lat="43.40208" lon="-0.51547">
        <ele>252.96</ele>
        <time>2019-03-17T08:27:01Z</time>
      </trkpt>
      <trkpt lat="43.40185" lon="-0.5152">
        <ele>255.85</ele>
        <time>2019-03-17T08:27:18Z</time>
      </trkpt>
      <trkpt lat="43.40174" lon="-0.51509">
        <ele>256.81</ele>
        <time>2019-03-17T08:27:28Z</time>
      </trkpt>
      <trkpt lat="43.40157" lon="-0.51489">
        <ele>257.77</ele>
        <time>2019-03-17T08:27:43Z</time>
      </trkpt>
      <trkpt lat="43.40152" lon="-0.51483">
        <ele>257.77</ele>
        <time>2019-03-17T08:27:47Z</time>
      </trkpt>
      <trkpt lat="43.40134" lon="-0.51455">
        <ele>258.25</ele>
        <time>2019-03-17T08:28:05Z</time>
      </trkpt>
      <trkpt lat="43.40124" lon="-0.51429">
        <ele>259.21</ele>
        <time>2019-03-17T08:28:19Z</time>
      </trkpt>
      <trkpt lat="43.40114" lon="-0.51394">
        <ele>259.69</ele>
        <time>2019-03-17T08:28:38Z</time>
      </trkpt>
      <trkpt lat="43.40106" lon="-0.51363">
        <ele>260.17</ele>
        <time>2019-03-17T08:28:55Z</time>
      </trkpt>
      <trkpt lat="43.40097" lon="-0.51329">
        <ele>261.14</ele>
        <time>2019-03-17T08:29:13Z</time>
      </trkpt>
      <trkpt lat="43.40086" lon="-0.51296">
        <ele>261.62</ele>
        <time>2019-03-17T08:29:32Z</time>
      </trkpt>
      <trkpt lat="43.40076" lon="-0.51262">
        <ele>260.65</ele>
        <time>2019-03-17T08:29:50Z</time>
      </trkpt>
      <trkpt lat="43.40077" lon="-0.51257">
        <ele>262.58</ele>
        <time>2019-03-17T08:30:04Z</time>
      </trkpt>
      <trkpt lat="43.40076" lon="-0.51257">
        <ele>265.94</ele>
        <time>2019-03-17T08:30:35Z</time>
      </trkpt>
      <trkpt lat="43.40077" lon="-0.51255">
        <ele>267.38</ele>
        <time>2019-03-17T08:31:04Z</time>
      </trkpt>
      <trkpt lat="43.40077" lon="-0.51255">
        <ele>265.94</ele>
        <time>2019-03-17T08:31:33Z</time>
      </trkpt>
      <trkpt lat="43.40076" lon="-0.51257">
        <ele>265.46</ele>
        <time>2019-03-17T08:32:01Z</time>
      </trkpt>
      <trkpt lat="43.40077" lon="-0.51256">
        <ele>264.5</ele>
        <time>2019-03-17T08:32:28Z</time>
      </trkpt>
      <trkpt lat="43.40077" lon="-0.51254">
        <ele>264.02</ele>
        <time>2019-03-17T08:32:49Z</time>
      </trkpt>
      <trkpt lat="43.40078" lon="-0.51255">
        <ele>266.42</ele>
        <time>2019-03-17T08:33:17Z</time>
      </trkpt>
      <trkpt lat="43.40102" lon="-0.51223">
        <ele>265.46</ele>
        <time>2019-03-17T08:33:32Z</time>
      </trkpt>
      <trkpt lat="43.40124" lon="-0.51195">
        <ele>264.98</ele>
        <time>2019-03-17T08:33:44Z</time>
      </trkpt>
      <trkpt lat="43.40157" lon="-0.51163">
        <ele>264.02</ele>
        <time>2019-03-17T08:33:54Z</time>
      </trkpt>
      <trkpt lat="43.40186" lon="-0.51141">
        <ele>263.06</ele>
        <time>2019-03-17T08:34:01Z</time>
      </trkpt>
      <trkpt lat="43.40191" lon="-0.5114">
        <ele>262.58</ele>
        <time>2019-03-17T08:34:02Z</time>
      </trkpt>
      <trkpt lat="43.40196" lon="-0.51141">
        <ele>262.58</ele>
        <time>2019-03-17T08:34:03Z</time>
      </trkpt>
      <trkpt lat="43.402" lon="-0.51142">
        <ele>262.1</ele>
        <time>2019-03-17T08:34:04Z</time>
      </trkpt>
      <trkpt lat="43.40204" lon="-0.51144">
        <ele>262.1</ele>
        <time>2019-03-17T08:34:05Z</time>
      </trkpt>
      <trkpt lat="43.40208" lon="-0.51145">
        <ele>262.1</ele>
        <time>2019-03-17T08:34:06Z</time>
      </trkpt>
      <trkpt lat="43.40212" lon="-0.51147">
        <ele>262.58</ele>
        <time>2019-03-17T08:34:07Z</time>
      </trkpt>
      <trkpt lat="43.4028" lon="-0.51175">
        <ele>261.62</ele>
        <time>2019-03-17T08:34:25Z</time>
      </trkpt>
      <trkpt lat="43.40311" lon="-0.51212">
        <ele>260.65</ele>
        <time>2019-03-17T08:34:38Z</time>
      </trkpt>
      <trkpt lat="43.40324" lon="-0.5124">
        <ele>259.21</ele>
        <time>2019-03-17T08:34:44Z</time>
      </trkpt>
      <trkpt lat="43.40375" lon="-0.51304">
        <ele>255.37</ele>
        <time>2019-03-17T08:34:59Z</time>
      </trkpt>
      <trkpt lat="43.40425" lon="-0.51374">
        <ele>250.56</ele>
        <time>2019-03-17T08:35:13Z</time>
      </trkpt>
      <trkpt lat="43.4046" lon="-0.51426">
        <ele>249.12</ele>
        <time>2019-03-17T08:35:26Z</time>
      </trkpt>
      <trkpt lat="43.4049" lon="-0.51455">
        <ele>249.6</ele>
        <time>2019-03-17T08:35:39Z</time>
      </trkpt>
      <trkpt lat="43.40507" lon="-0.51493">
        <ele>242.39</ele>
        <time>2019-03-17T08:35:55Z</time>
      </trkpt>
      <trkpt lat="43.4052" lon="-0.5152">
        <ele>239.51</ele>
        <time>2019-03-17T08:36:05Z</time>
      </trkpt>
      <trkpt lat="43.40524" lon="-0.51526">
        <ele>239.02</ele>
        <time>2019-03-17T08:36:07Z</time>
      </trkpt>
      <trkpt lat="43.40552" lon="-0.51574">
        <ele>235.18</ele>
        <time>2019-03-17T08:36:17Z</time>
      </trkpt>
      <trkpt lat="43.40573" lon="-0.51604">
        <ele>233.26</ele>
        <time>2019-03-17T08:36:27Z</time>
      </trkpt>
      <trkpt lat="43.40578" lon="-0.51607">
        <ele>232.78</ele>
        <time>2019-03-17T08:36:28Z</time>
      </trkpt>
      <trkpt lat="43.40583" lon="-0.51609">
        <ele>232.78</ele>
        <time>2019-03-17T08:36:29Z</time>
      </trkpt>
      <trkpt lat="43.40602" lon="-0.51618">
        <ele>232.3</ele>
        <time>2019-03-17T08:36:33Z</time>
      </trkpt>
      <trkpt lat="43.40606" lon="-0.5162">
        <ele>232.3</ele>
        <time>2019-03-17T08:36:34Z</time>
      </trkpt>
      <trkpt lat="43.40668" lon="-0.51648">
        <ele>232.3</ele>
        <time>2019-03-17T08:36:45Z</time>
      </trkpt>
      <trkpt lat="43.40682" lon="-0.51653">
        <ele>231.33</ele>
        <time>2019-03-17T08:36:47Z</time>
      </trkpt>
      <trkpt lat="43.40689" lon="-0.51654">
        <ele>230.85</ele>
        <time>2019-03-17T08:36:48Z</time>
      </trkpt>
      <trkpt lat="43.40725" lon="-0.51661">
        <ele>226.53</ele>
        <time>2019-03-17T08:36:54Z</time>
      </trkpt>
      <trkpt lat="43.40762" lon="-0.51667">
        <ele>220.76</ele>
        <time>2019-03-17T08:37:03Z</time>
      </trkpt>
      <trkpt lat="43.40765" lon="-0.51663">
        <ele>220.28</ele>
        <time>2019-03-17T08:37:04Z</time>
      </trkpt>
      <trkpt lat="43.40768" lon="-0.51658">
        <ele>219.32</ele>
        <time>2019-03-17T08:37:05Z</time>
      </trkpt>
      <trkpt lat="43.40782" lon="-0.51635">
        <ele>216.43</ele>
        <time>2019-03-17T08:37:09Z</time>
      </trkpt>
      <trkpt lat="43.40785" lon="-0.5163">
        <ele>215.95</ele>
        <time>2019-03-17T08:37:10Z</time>
      </trkpt>
      <trkpt lat="43.40789" lon="-0.51624">
        <ele>214.99</ele>
        <time>2019-03-17T08:37:11Z</time>
      </trkpt>
      <trkpt lat="43.40792" lon="-0.5162">
        <ele>214.03</ele>
        <time>2019-03-17T08:37:12Z</time>
      </trkpt>
      <trkpt lat="43.40796" lon="-0.51615">
        <ele>213.07</ele>
        <time>2019-03-17T08:37:13Z</time>
      </trkpt>
      <trkpt lat="43.408" lon="-0.51611">
        <ele>212.11</ele>
        <time>2019-03-17T08:37:14Z</time>
      </trkpt>
      <trkpt lat="43.40804" lon="-0.51607">
        <ele>211.15</ele>
        <time>2019-03-17T08:37:15Z</time>
      </trkpt>
      <trkpt lat="43.40807" lon="-0.51603">
        <ele>210.19</ele>
        <time>2019-03-17T08:37:16Z</time>
      </trkpt>
      <trkpt lat="43.40809" lon="-0.51598">
        <ele>209.7</ele>
        <time>2019-03-17T08:37:17Z</time>
      </trkpt>
      <trkpt lat="43.40812" lon="-0.51593">
        <ele>208.74</ele>
        <time>2019-03-17T08:37:18Z</time>
      </trkpt>
      <trkpt lat="43.40814" lon="-0.51586">
        <ele>207.78</ele>
        <time>2019-03-17T08:37:19Z</time>
      </trkpt>
      <trkpt lat="43.40814" lon="-0.5158">
        <ele>206.34</ele>
        <time>2019-03-17T08:37:20Z</time>
      </trkpt>
      <trkpt lat="43.40814" lon="-0.51574">
        <ele>205.38</ele>
        <time>2019-03-17T08:37:21Z</time>
      </trkpt>
      <trkpt lat="43.40813" lon="-0.51568">
        <ele>203.94</ele>
        <time>2019-03-17T08:37:22Z</time>
      </trkpt>
      <trkpt lat="43.40812" lon="-0.51564">
        <ele>202.98</ele>
        <time>2019-03-17T08:37:23Z</time>
      </trkpt>
      <trkpt lat="43.4081" lon="-0.51559">
        <ele>202.01</ele>
        <time>2019-03-17T08:37:24Z</time>
      </trkpt>
      <trkpt lat="43.40808" lon="-0.51555">
        <ele>201.53</ele>
        <time>2019-03-17T08:37:25Z</time>
      </trkpt>
      <trkpt lat="43.40805" lon="-0.51547">
        <ele>200.09</ele>
        <time>2019-03-17T08:37:27Z</time>
      </trkpt>
      <trkpt lat="43.40805" lon="-0.51542">
        <ele>199.13</ele>
        <time>2019-03-17T08:37:28Z</time>
      </trkpt>
      <trkpt lat="43.40806" lon="-0.51539">
        <ele>198.65</ele>
        <time>2019-03-17T08:37:29Z</time>
      </trkpt>
      <trkpt lat="43.40808" lon="-0.51536">
        <ele>198.17</ele>
        <time>2019-03-17T08:37:30Z</time>
      </trkpt>
      <trkpt lat="43.40809" lon="-0.51532">
        <ele>198.17</ele>
        <time>2019-03-17T08:37:31Z</time>
      </trkpt>
      <trkpt lat="43.4081" lon="-0.51529">
        <ele>197.69</ele>
        <time>2019-03-17T08:37:32Z</time>
      </trkpt>
      <trkpt lat="43.4081" lon="-0.51525">
        <ele>197.21</ele>
        <time>2019-03-17T08:37:33Z</time>
      </trkpt>
      <trkpt lat="43.40809" lon="-0.5152">
        <ele>196.73</ele>
        <time>2019-03-17T08:37:34Z</time>
      </trkpt>
      <trkpt lat="43.40808" lon="-0.51516">
        <ele>196.25</ele>
        <time>2019-03-17T08:37:35Z</time>
      </trkpt>
      <trkpt lat="43.40784" lon="-0.51463">
        <ele>193.84</ele>
        <time>2019-03-17T08:37:46Z</time>
      </trkpt>
      <trkpt lat="43.40767" lon="-0.51411">
        <ele>190.48</ele>
        <time>2019-03-17T08:38:00Z</time>
      </trkpt>
      <trkpt lat="43.40746" lon="-0.51367">
        <ele>190.48</ele>
        <time>2019-03-17T08:38:14Z</time>
      </trkpt>
      <trkpt lat="43.40739" lon="-0.51326">
        <ele>189.04</ele>
        <time>2019-03-17T08:38:28Z</time>
      </trkpt>
      <trkpt lat="43.40754" lon="-0.51299">
        <ele>192.4</ele>
        <time>2019-03-17T08:38:40Z</time>
      </trkpt>
      <trkpt lat="43.40756" lon="-0.51297">
        <ele>192.4</ele>
        <time>2019-03-17T08:38:41Z</time>
      </trkpt>
      <trkpt lat="43.40757" lon="-0.51294">
        <ele>192.4</ele>
        <time>2019-03-17T08:38:42Z</time>
      </trkpt>
      <trkpt lat="43.40758" lon="-0.51292">
        <ele>192.4</ele>
        <time>2019-03-17T08:38:43Z</time>
      </trkpt>
      <trkpt lat="43.40759" lon="-0.51289">
        <ele>192.4</ele>
        <time>2019-03-17T08:38:44Z</time>
      </trkpt>
      <trkpt lat="43.40761" lon="-0.51286">
        <ele>192.4</ele>
        <time>2019-03-17T08:38:45Z</time>
      </trkpt>
      <trkpt lat="43.40781" lon="-0.51245">
        <ele>191.92</ele>
        <time>2019-03-17T08:39:00Z</time>
      </trkpt>
      <trkpt lat="43.408" lon="-0.51206">
        <ele>194.8</ele>
        <time>2019-03-17T08:39:15Z</time>
      </trkpt>
      <trkpt lat="43.40813" lon="-0.51176">
        <ele>194.8</ele>
        <time>2019-03-17T08:39:27Z</time>
      </trkpt>
      <trkpt lat="43.40826" lon="-0.51146">
        <ele>195.28</ele>
        <time>2019-03-17T08:39:37Z</time>
      </trkpt>
      <trkpt lat="43.40833" lon="-0.51111">
        <ele>195.28</ele>
        <time>2019-03-17T08:39:48Z</time>
      </trkpt>
      <trkpt lat="43.40839" lon="-0.51068">
        <ele>196.25</ele>
        <time>2019-03-17T08:40:02Z</time>
      </trkpt>
      <trkpt lat="43.4084" lon="-0.51067">
        <ele>196.73</ele>
        <time>2019-03-17T08:40:03Z</time>
      </trkpt>
      <trkpt lat="43.40842" lon="-0.51066">
        <ele>196.73</ele>
        <time>2019-03-17T08:40:04Z</time>
      </trkpt>
      <trkpt lat="43.40844" lon="-0.51067">
        <ele>197.21</ele>
        <time>2019-03-17T08:40:05Z</time>
      </trkpt>
      <trkpt lat="43.40846" lon="-0.51068">
        <ele>197.69</ele>
        <time>2019-03-17T08:40:06Z</time>
      </trkpt>
      <trkpt lat="43.40869" lon="-0.51095">
        <ele>204.9</ele>
        <time>2019-03-17T08:40:21Z</time>
      </trkpt>
      <trkpt lat="43.40884" lon="-0.51121">
        <ele>205.38</ele>
        <time>2019-03-17T08:40:32Z</time>
      </trkpt>
      <trkpt lat="43.409" lon="-0.51165">
        <ele>204.9</ele>
        <time>2019-03-17T08:40:47Z</time>
      </trkpt>
      <trkpt lat="43.40912" lon="-0.51209">
        <ele>205.38</ele>
        <time>2019-03-17T08:40:59Z</time>
      </trkpt>
      <trkpt lat="43.40923" lon="-0.51264">
        <ele>207.3</ele>
        <time>2019-03-17T08:41:15Z</time>
      </trkpt>
      <trkpt lat="43.40936" lon="-0.51325">
        <ele>207.78</ele>
        <time>2019-03-17T08:41:31Z</time>
      </trkpt>
      <trkpt lat="43.40955" lon="-0.5138">
        <ele>206.82</ele>
        <time>2019-03-17T08:41:43Z</time>
      </trkpt>
      <trkpt lat="43.40983" lon="-0.51459">
        <ele>203.94</ele>
        <time>2019-03-17T08:41:56Z</time>
      </trkpt>
      <trkpt lat="43.41004" lon="-0.51534">
        <ele>200.09</ele>
        <time>2019-03-17T08:42:09Z</time>
      </trkpt>
      <trkpt lat="43.41006" lon="-0.5154">
        <ele>199.61</ele>
        <time>2019-03-17T08:42:10Z</time>
      </trkpt>
      <trkpt lat="43.41009" lon="-0.51545">
        <ele>199.61</ele>
        <time>2019-03-17T08:42:11Z</time>
      </trkpt>
      <trkpt lat="43.41013" lon="-0.5155">
        <ele>199.13</ele>
        <time>2019-03-17T08:42:12Z</time>
      </trkpt>
      <trkpt lat="43.41016" lon="-0.51555">
        <ele>198.65</ele>
        <time>2019-03-17T08:42:13Z</time>
      </trkpt>
      <trkpt lat="43.41018" lon="-0.51559">
        <ele>198.17</ele>
        <time>2019-03-17T08:42:14Z</time>
      </trkpt>
      <trkpt lat="43.4102" lon="-0.51564">
        <ele>198.17</ele>
        <time>2019-03-17T08:42:15Z</time>
      </trkpt>
      <trkpt lat="43.41022" lon="-0.51568">
        <ele>197.69</ele>
        <time>2019-03-17T08:42:16Z</time>
      </trkpt>
      <trkpt lat="43.41041" lon="-0.51623">
        <ele>197.21</ele>
        <time>2019-03-17T08:42:27Z</time>
      </trkpt>
      <trkpt lat="43.41049" lon="-0.51647">
        <ele>197.69</ele>
        <time>2019-03-17T08:42:31Z</time>
      </trkpt>
      <trkpt lat="43.41074" lon="-0.51715">
        <ele>197.69</ele>
        <time>2019-03-17T08:42:45Z</time>
      </trkpt>
      <trkpt lat="43.41084" lon="-0.51762">
        <ele>195.77</ele>
        <time>2019-03-17T08:42:57Z</time>
      </trkpt>
      <trkpt lat="43.41098" lon="-0.51829">
        <ele>193.36</ele>
        <time>2019-03-17T08:43:11Z</time>
      </trkpt>
      <trkpt lat="43.41121" lon="-0.51914">
        <ele>190.96</ele>
        <time>2019-03-17T08:43:26Z</time>
      </trkpt>
      <trkpt lat="43.41164" lon="-0.51987">
        <ele>191.92</ele>
        <time>2019-03-17T08:43:43Z</time>
      </trkpt>
      <trkpt lat="43.41211" lon="-0.52043">
        <ele>193.36</ele>
        <time>2019-03-17T08:43:59Z</time>
      </trkpt>
      <trkpt lat="43.41232" lon="-0.52075">
        <ele>192.88</ele>
        <time>2019-03-17T08:44:09Z</time>
      </trkpt>
      <trkpt lat="43.4123" lon="-0.5208">
        <ele>192.4</ele>
        <time>2019-03-17T08:44:10Z</time>
      </trkpt>
      <trkpt lat="43.41227" lon="-0.52083">
        <ele>191.92</ele>
        <time>2019-03-17T08:44:11Z</time>
      </trkpt>
      <trkpt lat="43.41224" lon="-0.52087">
        <ele>191.44</ele>
        <time>2019-03-17T08:44:12Z</time>
      </trkpt>
      <trkpt lat="43.4122" lon="-0.52091">
        <ele>190.96</ele>
        <time>2019-03-17T08:44:13Z</time>
      </trkpt>
      <trkpt lat="43.41192" lon="-0.52121">
        <ele>188.08</ele>
        <time>2019-03-17T08:44:21Z</time>
      </trkpt>
      <trkpt lat="43.41189" lon="-0.52125">
        <ele>187.59</ele>
        <time>2019-03-17T08:44:22Z</time>
      </trkpt>
      <trkpt lat="43.41188" lon="-0.5213">
        <ele>187.59</ele>
        <time>2019-03-17T08:44:23Z</time>
      </trkpt>
      <trkpt lat="43.41188" lon="-0.52136">
        <ele>187.11</ele>
        <time>2019-03-17T08:44:24Z</time>
      </trkpt>
      <trkpt lat="43.41189" lon="-0.52142">
        <ele>186.63</ele>
        <time>2019-03-17T08:44:25Z</time>
      </trkpt>
      <trkpt lat="43.41191" lon="-0.52147">
        <ele>186.63</ele>
        <time>2019-03-17T08:44:26Z</time>
      </trkpt>
      <trkpt lat="43.41215" lon="-0.52211">
        <ele>184.71</ele>
        <time>2019-03-17T08:44:40Z</time>
      </trkpt>
      <trkpt lat="43.41257" lon="-0.52268">
        <ele>185.67</ele>
        <time>2019-03-17T08:44:56Z</time>
      </trkpt>
      <trkpt lat="43.41286" lon="-0.52332">
        <ele>183.27</ele>
        <time>2019-03-17T08:45:10Z</time>
      </trkpt>
      <trkpt lat="43.41299" lon="-0.52388">
        <ele>180.38</ele>
        <time>2019-03-17T08:45:23Z</time>
      </trkpt>
      <trkpt lat="43.41313" lon="-0.52445">
        <ele>178.94</ele>
        <time>2019-03-17T08:45:36Z</time>
      </trkpt>
      <trkpt lat="43.41333" lon="-0.52459">
        <ele>179.9</ele>
        <time>2019-03-17T08:45:45Z</time>
      </trkpt>
      <trkpt lat="43.41346" lon="-0.52458">
        <ele>181.83</ele>
        <time>2019-03-17T08:45:51Z</time>
      </trkpt>
      <trkpt lat="43.41377" lon="-0.52448">
        <ele>188.56</ele>
        <time>2019-03-17T08:46:03Z</time>
      </trkpt>
      <trkpt lat="43.41381" lon="-0.52433">
        <ele>187.59</ele>
        <time>2019-03-17T08:46:09Z</time>
      </trkpt>
      <trkpt lat="43.41381" lon="-0.52431">
        <ele>187.11</ele>
        <time>2019-03-17T08:46:10Z</time>
      </trkpt>
      <trkpt lat="43.41392" lon="-0.52391">
        <ele>185.67</ele>
        <time>2019-03-17T08:46:26Z</time>
      </trkpt>
      <trkpt lat="43.41409" lon="-0.52358">
        <ele>184.23</ele>
        <time>2019-03-17T08:46:41Z</time>
      </trkpt>
      <trkpt lat="43.41432" lon="-0.52327">
        <ele>186.63</ele>
        <time>2019-03-17T08:46:58Z</time>
      </trkpt>
      <trkpt lat="43.41449" lon="-0.5229">
        <ele>189.52</ele>
        <time>2019-03-17T08:47:15Z</time>
      </trkpt>
      <trkpt lat="43.41451" lon="-0.52289">
        <ele>190</ele>
        <time>2019-03-17T08:47:16Z</time>
      </trkpt>
      <trkpt lat="43.41452" lon="-0.52289">
        <ele>190</ele>
        <time>2019-03-17T08:47:17Z</time>
      </trkpt>
      <trkpt lat="43.41454" lon="-0.52288">
        <ele>190.48</ele>
        <time>2019-03-17T08:47:18Z</time>
      </trkpt>
      <trkpt lat="43.41455" lon="-0.52289">
        <ele>190.48</ele>
        <time>2019-03-17T08:47:19Z</time>
      </trkpt>
      <trkpt lat="43.41456" lon="-0.5229">
        <ele>190.48</ele>
        <time>2019-03-17T08:47:20Z</time>
      </trkpt>
      <trkpt lat="43.41457" lon="-0.52292">
        <ele>190.96</ele>
        <time>2019-03-17T08:47:21Z</time>
      </trkpt>
      <trkpt lat="43.41458" lon="-0.52295">
        <ele>191.44</ele>
        <time>2019-03-17T08:47:22Z</time>
      </trkpt>
      <trkpt lat="43.41476" lon="-0.52339">
        <ele>192.88</ele>
        <time>2019-03-17T08:47:36Z</time>
      </trkpt>
      <trkpt lat="43.41502" lon="-0.52401">
        <ele>194.8</ele>
        <time>2019-03-17T08:47:51Z</time>
      </trkpt>
      <trkpt lat="43.41531" lon="-0.52482">
        <ele>194.32</ele>
        <time>2019-03-17T08:48:07Z</time>
      </trkpt>
      <trkpt lat="43.41539" lon="-0.52511">
        <ele>192.4</ele>
        <time>2019-03-17T08:48:11Z</time>
      </trkpt>
      <trkpt lat="43.41541" lon="-0.52563">
        <ele>186.63</ele>
        <time>2019-03-17T08:48:19Z</time>
      </trkpt>
      <trkpt lat="43.4154" lon="-0.52569">
        <ele>185.19</ele>
        <time>2019-03-17T08:48:20Z</time>
      </trkpt>
      <trkpt lat="43.41539" lon="-0.52575">
        <ele>184.23</ele>
        <time>2019-03-17T08:48:21Z</time>
      </trkpt>
      <trkpt lat="43.41538" lon="-0.52581">
        <ele>183.27</ele>
        <time>2019-03-17T08:48:22Z</time>
      </trkpt>
      <trkpt lat="43.41538" lon="-0.52587">
        <ele>182.31</ele>
        <time>2019-03-17T08:48:23Z</time>
      </trkpt>
      <trkpt lat="43.41538" lon="-0.52591">
        <ele>181.35</ele>
        <time>2019-03-17T08:48:24Z</time>
      </trkpt>
      <trkpt lat="43.41539" lon="-0.52597">
        <ele>179.9</ele>
        <time>2019-03-17T08:48:25Z</time>
      </trkpt>
      <trkpt lat="43.4154" lon="-0.52602">
        <ele>178.94</ele>
        <time>2019-03-17T08:48:26Z</time>
      </trkpt>
      <trkpt lat="43.41551" lon="-0.52652">
        <ele>174.14</ele>
        <time>2019-03-17T08:48:39Z</time>
      </trkpt>
      <trkpt lat="43.41559" lon="-0.52667">
        <ele>174.62</ele>
        <time>2019-03-17T08:48:45Z</time>
      </trkpt>
      <trkpt lat="43.41559" lon="-0.5267">
        <ele>174.62</ele>
        <time>2019-03-17T08:48:46Z</time>
      </trkpt>
      <trkpt lat="43.4156" lon="-0.52678">
        <ele>174.62</ele>
        <time>2019-03-17T08:48:49Z</time>
      </trkpt>
      <trkpt lat="43.41561" lon="-0.5268">
        <ele>174.62</ele>
        <time>2019-03-17T08:48:50Z</time>
      </trkpt>
      <trkpt lat="43.41562" lon="-0.52682">
        <ele>175.1</ele>
        <time>2019-03-17T08:48:51Z</time>
      </trkpt>
      <trkpt lat="43.41563" lon="-0.52684">
        <ele>175.58</ele>
        <time>2019-03-17T08:49:05Z</time>
      </trkpt>
      <trkpt lat="43.41561" lon="-0.52686">
        <ele>177.02</ele>
        <time>2019-03-17T08:49:34Z</time>
      </trkpt>
      <trkpt lat="43.41561" lon="-0.52687">
        <ele>175.58</ele>
        <time>2019-03-17T08:50:04Z</time>
      </trkpt>
      <trkpt lat="43.41571" lon="-0.52699">
        <ele>177.98</ele>
        <time>2019-03-17T08:50:20Z</time>
      </trkpt>
      <trkpt lat="43.4159" lon="-0.52724">
        <ele>184.71</ele>
        <time>2019-03-17T08:50:32Z</time>
      </trkpt>
      <trkpt lat="43.4161" lon="-0.52745">
        <ele>191.44</ele>
        <time>2019-03-17T08:50:44Z</time>
      </trkpt>
      <trkpt lat="43.41634" lon="-0.52759">
        <ele>202.98</ele>
        <time>2019-03-17T08:50:57Z</time>
      </trkpt>
      <trkpt lat="43.41638" lon="-0.5276">
        <ele>205.86</ele>
        <time>2019-03-17T08:50:59Z</time>
      </trkpt>
      <trkpt lat="43.4164" lon="-0.5276">
        <ele>207.3</ele>
        <time>2019-03-17T08:51:00Z</time>
      </trkpt>
      <trkpt lat="43.41642" lon="-0.5276">
        <ele>208.74</ele>
        <time>2019-03-17T08:51:01Z</time>
      </trkpt>
      <trkpt lat="43.41643" lon="-0.5276">
        <ele>210.19</ele>
        <time>2019-03-17T08:51:02Z</time>
      </trkpt>
      <trkpt lat="43.41645" lon="-0.52759">
        <ele>211.15</ele>
        <time>2019-03-17T08:51:03Z</time>
      </trkpt>
      <trkpt lat="43.41646" lon="-0.52759">
        <ele>212.11</ele>
        <time>2019-03-17T08:51:04Z</time>
      </trkpt>
      <trkpt lat="43.41647" lon="-0.52759">
        <ele>213.07</ele>
        <time>2019-03-17T08:51:05Z</time>
      </trkpt>
      <trkpt lat="43.41649" lon="-0.52759">
        <ele>214.03</ele>
        <time>2019-03-17T08:51:06Z</time>
      </trkpt>
      <trkpt lat="43.4165" lon="-0.52759">
        <ele>214.99</ele>
        <time>2019-03-17T08:51:07Z</time>
      </trkpt>
      <trkpt lat="43.41656" lon="-0.52762">
        <ele>216.43</ele>
        <time>2019-03-17T08:51:11Z</time>
      </trkpt>
      <trkpt lat="43.41657" lon="-0.52763">
        <ele>216.43</ele>
        <time>2019-03-17T08:51:12Z</time>
      </trkpt>
      <trkpt lat="43.41659" lon="-0.52764">
        <ele>216.43</ele>
        <time>2019-03-17T08:51:13Z</time>
      </trkpt>
      <trkpt lat="43.41668" lon="-0.52765">
        <ele>216.91</ele>
        <time>2019-03-17T08:51:17Z</time>
      </trkpt>
      <trkpt lat="43.41669" lon="-0.52766">
        <ele>216.91</ele>
        <time>2019-03-17T08:51:18Z</time>
      </trkpt>
      <trkpt lat="43.41671" lon="-0.52768">
        <ele>217.4</ele>
        <time>2019-03-17T08:51:19Z</time>
      </trkpt>
      <trkpt lat="43.41701" lon="-0.52788">
        <ele>218.36</ele>
        <time>2019-03-17T08:51:32Z</time>
      </trkpt>
      <trkpt lat="43.41736" lon="-0.5281">
        <ele>217.88</ele>
        <time>2019-03-17T08:51:49Z</time>
      </trkpt>
      <trkpt lat="43.41758" lon="-0.52828">
        <ele>219.32</ele>
        <time>2019-03-17T08:52:03Z</time>
      </trkpt>
      <trkpt lat="43.41784" lon="-0.52841">
        <ele>219.32</ele>
        <time>2019-03-17T08:52:18Z</time>
      </trkpt>
      <trkpt lat="43.41801" lon="-0.52839">
        <ele>213.07</ele>
        <time>2019-03-17T08:52:28Z</time>
      </trkpt>
      <trkpt lat="43.41803" lon="-0.52838">
        <ele>212.59</ele>
        <time>2019-03-17T08:52:29Z</time>
      </trkpt>
      <trkpt lat="43.41806" lon="-0.52837">
        <ele>212.11</ele>
        <time>2019-03-17T08:52:30Z</time>
      </trkpt>
      <trkpt lat="43.41808" lon="-0.52835">
        <ele>212.11</ele>
        <time>2019-03-17T08:52:31Z</time>
      </trkpt>
      <trkpt lat="43.4181" lon="-0.52834">
        <ele>212.11</ele>
        <time>2019-03-17T08:52:32Z</time>
      </trkpt>
      <trkpt lat="43.41813" lon="-0.52833">
        <ele>211.63</ele>
        <time>2019-03-17T08:52:33Z</time>
      </trkpt>
      <trkpt lat="43.41815" lon="-0.52832">
        <ele>211.63</ele>
        <time>2019-03-17T08:52:34Z</time>
      </trkpt>
      <trkpt lat="43.41842" lon="-0.52814">
        <ele>207.3</ele>
        <time>2019-03-17T08:52:50Z</time>
      </trkpt>
      <trkpt lat="43.41862" lon="-0.52797">
        <ele>203.94</ele>
        <time>2019-03-17T08:53:01Z</time>
      </trkpt>
      <trkpt lat="43.41883" lon="-0.52768">
        <ele>200.09</ele>
        <time>2019-03-17T08:53:11Z</time>
      </trkpt>
      <trkpt lat="43.41895" lon="-0.52736">
        <ele>196.25</ele>
        <time>2019-03-17T08:53:21Z</time>
      </trkpt>
      <trkpt lat="43.41901" lon="-0.52717">
        <ele>193.84</ele>
        <time>2019-03-17T08:53:27Z</time>
      </trkpt>
      <trkpt lat="43.41902" lon="-0.52715">
        <ele>193.36</ele>
        <time>2019-03-17T08:53:28Z</time>
      </trkpt>
      <trkpt lat="43.41904" lon="-0.52715">
        <ele>192.88</ele>
        <time>2019-03-17T08:53:29Z</time>
      </trkpt>
      <trkpt lat="43.41906" lon="-0.52715">
        <ele>192.88</ele>
        <time>2019-03-17T08:53:30Z</time>
      </trkpt>
      <trkpt lat="43.41909" lon="-0.52717">
        <ele>192.88</ele>
        <time>2019-03-17T08:53:31Z</time>
      </trkpt>
      <trkpt lat="43.41911" lon="-0.52719">
        <ele>192.4</ele>
        <time>2019-03-17T08:53:32Z</time>
      </trkpt>
      <trkpt lat="43.41913" lon="-0.52721">
        <ele>191.92</ele>
        <time>2019-03-17T08:53:33Z</time>
      </trkpt>
      <trkpt lat="43.41916" lon="-0.52722">
        <ele>191.92</ele>
        <time>2019-03-17T08:53:34Z</time>
      </trkpt>
      <trkpt lat="43.41919" lon="-0.52722">
        <ele>191.44</ele>
        <time>2019-03-17T08:53:35Z</time>
      </trkpt>
      <trkpt lat="43.41922" lon="-0.52721">
        <ele>191.44</ele>
        <time>2019-03-17T08:53:36Z</time>
      </trkpt>
      <trkpt lat="43.41924" lon="-0.5272">
        <ele>190.96</ele>
        <time>2019-03-17T08:53:37Z</time>
      </trkpt>
      <trkpt lat="43.41926" lon="-0.52717">
        <ele>190.48</ele>
        <time>2019-03-17T08:53:38Z</time>
      </trkpt>
      <trkpt lat="43.41928" lon="-0.52715">
        <ele>189.52</ele>
        <time>2019-03-17T08:53:39Z</time>
      </trkpt>
      <trkpt lat="43.41934" lon="-0.52706">
        <ele>187.11</ele>
        <time>2019-03-17T08:53:42Z</time>
      </trkpt>
      <trkpt lat="43.41935" lon="-0.52703">
        <ele>186.63</ele>
        <time>2019-03-17T08:53:43Z</time>
      </trkpt>
      <trkpt lat="43.41936" lon="-0.52699">
        <ele>186.15</ele>
        <time>2019-03-17T08:53:44Z</time>
      </trkpt>
      <trkpt lat="43.41938" lon="-0.52696">
        <ele>185.67</ele>
        <time>2019-03-17T08:53:45Z</time>
      </trkpt>
      <trkpt lat="43.4194" lon="-0.52694">
        <ele>185.67</ele>
        <time>2019-03-17T08:53:46Z</time>
      </trkpt>
      <trkpt lat="43.41942" lon="-0.52692">
        <ele>185.19</ele>
        <time>2019-03-17T08:53:47Z</time>
      </trkpt>
      <trkpt lat="43.41944" lon="-0.5269">
        <ele>185.19</ele>
        <time>2019-03-17T08:53:48Z</time>
      </trkpt>
      <trkpt lat="43.41945" lon="-0.52688">
        <ele>184.71</ele>
        <time>2019-03-17T08:53:49Z</time>
      </trkpt>
      <trkpt lat="43.41953" lon="-0.52677">
        <ele>185.19</ele>
        <time>2019-03-17T08:53:56Z</time>
      </trkpt>
      <trkpt lat="43.41955" lon="-0.52676">
        <ele>185.67</ele>
        <time>2019-03-17T08:53:57Z</time>
      </trkpt>
      <trkpt lat="43.41956" lon="-0.52675">
        <ele>185.67</ele>
        <time>2019-03-17T08:53:58Z</time>
      </trkpt>
      <trkpt lat="43.41957" lon="-0.52674">
        <ele>186.15</ele>
        <time>2019-03-17T08:53:59Z</time>
      </trkpt>
      <trkpt lat="43.41958" lon="-0.52673">
        <ele>186.63</ele>
        <time>2019-03-17T08:54:00Z</time>
      </trkpt>
      <trkpt lat="43.4196" lon="-0.52672">
        <ele>187.11</ele>
        <time>2019-03-17T08:54:01Z</time>
      </trkpt>
      <trkpt lat="43.41961" lon="-0.5267">
        <ele>187.11</ele>
        <time>2019-03-17T08:54:02Z</time>
      </trkpt>
      <trkpt lat="43.41962" lon="-0.52669">
        <ele>187.59</ele>
        <time>2019-03-17T08:54:03Z</time>
      </trkpt>
      <trkpt lat="43.41963" lon="-0.52667">
        <ele>187.59</ele>
        <time>2019-03-17T08:54:04Z</time>
      </trkpt>
      <trkpt lat="43.41964" lon="-0.52666">
        <ele>188.08</ele>
        <time>2019-03-17T08:54:05Z</time>
      </trkpt>
      <trkpt lat="43.41966" lon="-0.52664">
        <ele>188.08</ele>
        <time>2019-03-17T08:54:06Z</time>
      </trkpt>
      <trkpt lat="43.41968" lon="-0.52661">
        <ele>187.59</ele>
        <time>2019-03-17T08:54:08Z</time>
      </trkpt>
      <trkpt lat="43.41969" lon="-0.52659">
        <ele>187.11</ele>
        <time>2019-03-17T08:54:09Z</time>
      </trkpt>
      <trkpt lat="43.4197" lon="-0.52658">
        <ele>187.11</ele>
        <time>2019-03-17T08:54:10Z</time>
      </trkpt>
      <trkpt lat="43.41972" lon="-0.52656">
        <ele>186.63</ele>
        <time>2019-03-17T08:54:11Z</time>
      </trkpt>
      <trkpt lat="43.41974" lon="-0.52654">
        <ele>185.67</ele>
        <time>2019-03-17T08:54:12Z</time>
      </trkpt>
      <trkpt lat="43.41993" lon="-0.52633">
        <ele>181.83</ele>
        <time>2019-03-17T08:54:27Z</time>
      </trkpt>
      <trkpt lat="43.4201" lon="-0.52616">
        <ele>184.23</ele>
        <time>2019-03-17T08:54:41Z</time>
      </trkpt>
      <trkpt lat="43.42027" lon="-0.52595">
        <ele>185.67</ele>
        <time>2019-03-17T08:54:55Z</time>
      </trkpt>
      <trkpt lat="43.42044" lon="-0.5257">
        <ele>185.19</ele>
        <time>2019-03-17T08:55:11Z</time>
      </trkpt>
      <trkpt lat="43.42066" lon="-0.52544">
        <ele>185.67</ele>
        <time>2019-03-17T08:55:30Z</time>
      </trkpt>
      <trkpt lat="43.42086" lon="-0.52529">
        <ele>186.63</ele>
        <time>2019-03-17T08:55:45Z</time>
      </trkpt>
      <trkpt lat="43.4211" lon="-0.52514">
        <ele>195.28</ele>
        <time>2019-03-17T08:56:02Z</time>
      </trkpt>
      <trkpt lat="43.42132" lon="-0.525">
        <ele>201.05</ele>
        <time>2019-03-17T08:56:18Z</time>
      </trkpt>
      <trkpt lat="43.42152" lon="-0.5249">
        <ele>203.46</ele>
        <time>2019-03-17T08:56:33Z</time>
      </trkpt>
      <trkpt lat="43.42174" lon="-0.52483">
        <ele>210.19</ele>
        <time>2019-03-17T08:56:49Z</time>
      </trkpt>
      <trkpt lat="43.42196" lon="-0.52469">
        <ele>216.43</ele>
        <time>2019-03-17T08:57:05Z</time>
      </trkpt>
      <trkpt lat="43.42212" lon="-0.5245">
        <ele>220.28</ele>
        <time>2019-03-17T08:57:21Z</time>
      </trkpt>
      <trkpt lat="43.42215" lon="-0.52446">
        <ele>220.76</ele>
        <time>2019-03-17T08:57:24Z</time>
      </trkpt>
      <trkpt lat="43.42216" lon="-0.52445">
        <ele>220.76</ele>
        <time>2019-03-17T08:57:25Z</time>
      </trkpt>
      <trkpt lat="43.42217" lon="-0.52444">
        <ele>221.24</ele>
        <time>2019-03-17T08:57:26Z</time>
      </trkpt>
      <trkpt lat="43.42218" lon="-0.52442">
        <ele>221.24</ele>
        <time>2019-03-17T08:57:27Z</time>
      </trkpt>
      <trkpt lat="43.42219" lon="-0.52441">
        <ele>221.24</ele>
        <time>2019-03-17T08:57:28Z</time>
      </trkpt>
      <trkpt lat="43.4222" lon="-0.5244">
        <ele>221.24</ele>
        <time>2019-03-17T08:57:29Z</time>
      </trkpt>
      <trkpt lat="43.42224" lon="-0.52437">
        <ele>222.2</ele>
        <time>2019-03-17T08:57:32Z</time>
      </trkpt>
      <trkpt lat="43.42225" lon="-0.52436">
        <ele>222.68</ele>
        <time>2019-03-17T08:57:33Z</time>
      </trkpt>
      <trkpt lat="43.42243" lon="-0.52419">
        <ele>226.05</ele>
        <time>2019-03-17T08:57:49Z</time>
      </trkpt>
      <trkpt lat="43.42268" lon="-0.52407">
        <ele>228.93</ele>
        <time>2019-03-17T08:58:08Z</time>
      </trkpt>
      <trkpt lat="43.42289" lon="-0.52398">
        <ele>232.3</ele>
        <time>2019-03-17T08:58:24Z</time>
      </trkpt>
      <trkpt lat="43.4231" lon="-0.52392">
        <ele>239.02</ele>
        <time>2019-03-17T08:58:40Z</time>
      </trkpt>
      <trkpt lat="43.42329" lon="-0.52386">
        <ele>245.75</ele>
        <time>2019-03-17T08:58:54Z</time>
      </trkpt>
      <trkpt lat="43.42355" lon="-0.52378">
        <ele>251.52</ele>
        <time>2019-03-17T08:59:11Z</time>
      </trkpt>
      <trkpt lat="43.42356" lon="-0.52377">
        <ele>252</ele>
        <time>2019-03-17T08:59:12Z</time>
      </trkpt>
      <trkpt lat="43.42358" lon="-0.52376">
        <ele>252</ele>
        <time>2019-03-17T08:59:13Z</time>
      </trkpt>
      <trkpt lat="43.42359" lon="-0.52374">
        <ele>252.48</ele>
        <time>2019-03-17T08:59:14Z</time>
      </trkpt>
      <trkpt lat="43.42361" lon="-0.52374">
        <ele>252.48</ele>
        <time>2019-03-17T08:59:15Z</time>
      </trkpt>
      <trkpt lat="43.42383" lon="-0.52355">
        <ele>252.96</ele>
        <time>2019-03-17T08:59:30Z</time>
      </trkpt>
      <trkpt lat="43.42403" lon="-0.52334">
        <ele>252.48</ele>
        <time>2019-03-17T08:59:46Z</time>
      </trkpt>
      <trkpt lat="43.42421" lon="-0.52319">
        <ele>251.52</ele>
        <time>2019-03-17T09:00:00Z</time>
      </trkpt>
      <trkpt lat="43.42421" lon="-0.52317">
        <ele>252.96</ele>
        <time>2019-03-17T09:00:23Z</time>
      </trkpt>
      <trkpt lat="43.4242" lon="-0.52313">
        <ele>253.44</ele>
        <time>2019-03-17T09:00:53Z</time>
      </trkpt>
      <trkpt lat="43.4242" lon="-0.52315">
        <ele>254.89</ele>
        <time>2019-03-17T09:01:27Z</time>
      </trkpt>
      <trkpt lat="43.42419" lon="-0.52317">
        <ele>252.96</ele>
        <time>2019-03-17T09:02:11Z</time>
      </trkpt>
      <trkpt lat="43.42419" lon="-0.52315">
        <ele>250.56</ele>
        <time>2019-03-17T09:02:50Z</time>
      </trkpt>
      <trkpt lat="43.4242" lon="-0.52317">
        <ele>252</ele>
        <time>2019-03-17T09:03:20Z</time>
      </trkpt>
      <trkpt lat="43.42421" lon="-0.52316">
        <ele>253.44</ele>
        <time>2019-03-17T09:03:54Z</time>
      </trkpt>
      <trkpt lat="43.4242" lon="-0.52316">
        <ele>252</ele>
        <time>2019-03-17T09:04:27Z</time>
      </trkpt>
      <trkpt lat="43.4242" lon="-0.52316">
        <ele>253.44</ele>
        <time>2019-03-17T09:05:04Z</time>
      </trkpt>
      <trkpt lat="43.4242" lon="-0.52317">
        <ele>252.96</ele>
        <time>2019-03-17T09:05:41Z</time>
      </trkpt>
      <trkpt lat="43.42421" lon="-0.52317">
        <ele>254.41</ele>
        <time>2019-03-17T09:06:13Z</time>
      </trkpt>
      <trkpt lat="43.42421" lon="-0.52319">
        <ele>254.89</ele>
        <time>2019-03-17T09:06:48Z</time>
      </trkpt>
      <trkpt lat="43.42422" lon="-0.5232">
        <ele>253.44</ele>
        <time>2019-03-17T09:07:12Z</time>
      </trkpt>
      <trkpt lat="43.42423" lon="-0.5232">
        <ele>252.96</ele>
        <time>2019-03-17T09:07:36Z</time>
      </trkpt>
      <trkpt lat="43.42421" lon="-0.52319">
        <ele>249.12</ele>
        <time>2019-03-17T09:08:04Z</time>
      </trkpt>
      <trkpt lat="43.42422" lon="-0.52317">
        <ele>247.68</ele>
        <time>2019-03-17T09:08:32Z</time>
      </trkpt>
      <trkpt lat="43.42421" lon="-0.5232">
        <ele>248.16</ele>
        <time>2019-03-17T09:08:52Z</time>
      </trkpt>
      <trkpt lat="43.42422" lon="-0.52318">
        <ele>247.68</ele>
        <time>2019-03-17T09:09:25Z</time>
      </trkpt>
      <trkpt lat="43.42424" lon="-0.52319">
        <ele>249.12</ele>
        <time>2019-03-17T09:09:44Z</time>
      </trkpt>
      <trkpt lat="43.42425" lon="-0.52318">
        <ele>249.6</ele>
        <time>2019-03-17T09:09:45Z</time>
      </trkpt>
      <trkpt lat="43.42427" lon="-0.52317">
        <ele>249.6</ele>
        <time>2019-03-17T09:09:46Z</time>
      </trkpt>
      <trkpt lat="43.42428" lon="-0.52316">
        <ele>249.6</ele>
        <time>2019-03-17T09:09:47Z</time>
      </trkpt>
      <trkpt lat="43.4243" lon="-0.52315">
        <ele>250.08</ele>
        <time>2019-03-17T09:09:48Z</time>
      </trkpt>
      <trkpt lat="43.42432" lon="-0.52315">
        <ele>250.08</ele>
        <time>2019-03-17T09:09:49Z</time>
      </trkpt>
      <trkpt lat="43.42434" lon="-0.52316">
        <ele>250.08</ele>
        <time>2019-03-17T09:09:50Z</time>
      </trkpt>
      <trkpt lat="43.42435" lon="-0.52317">
        <ele>250.08</ele>
        <time>2019-03-17T09:09:51Z</time>
      </trkpt>
      <trkpt lat="43.42437" lon="-0.52319">
        <ele>250.08</ele>
        <time>2019-03-17T09:09:52Z</time>
      </trkpt>
      <trkpt lat="43.42438" lon="-0.52322">
        <ele>250.56</ele>
        <time>2019-03-17T09:09:53Z</time>
      </trkpt>
      <trkpt lat="43.42439" lon="-0.52325">
        <ele>250.56</ele>
        <time>2019-03-17T09:09:54Z</time>
      </trkpt>
      <trkpt lat="43.4246" lon="-0.52383">
        <ele>250.08</ele>
        <time>2019-03-17T09:10:07Z</time>
      </trkpt>
      <trkpt lat="43.42488" lon="-0.52456">
        <ele>250.08</ele>
        <time>2019-03-17T09:10:23Z</time>
      </trkpt>
      <trkpt lat="43.42513" lon="-0.52507">
        <ele>251.04</ele>
        <time>2019-03-17T09:10:37Z</time>
      </trkpt>
      <trkpt lat="43.42543" lon="-0.52512">
        <ele>251.52</ele>
        <time>2019-03-17T09:10:47Z</time>
      </trkpt>
      <trkpt lat="43.42582" lon="-0.52493">
        <ele>251.52</ele>
        <time>2019-03-17T09:10:58Z</time>
      </trkpt>
      <trkpt lat="43.42586" lon="-0.52492">
        <ele>251.04</ele>
        <time>2019-03-17T09:10:59Z</time>
      </trkpt>
      <trkpt lat="43.4259" lon="-0.52491">
        <ele>251.04</ele>
        <time>2019-03-17T09:11:00Z</time>
      </trkpt>
      <trkpt lat="43.42594" lon="-0.52492">
        <ele>251.04</ele>
        <time>2019-03-17T09:11:01Z</time>
      </trkpt>
      <trkpt lat="43.42598" lon="-0.52494">
        <ele>251.04</ele>
        <time>2019-03-17T09:11:02Z</time>
      </trkpt>
      <trkpt lat="43.42602" lon="-0.52496">
        <ele>251.04</ele>
        <time>2019-03-17T09:11:03Z</time>
      </trkpt>
      <trkpt lat="43.42605" lon="-0.52499">
        <ele>251.04</ele>
        <time>2019-03-17T09:11:04Z</time>
      </trkpt>
      <trkpt lat="43.42608" lon="-0.52502">
        <ele>251.04</ele>
        <time>2019-03-17T09:11:05Z</time>
      </trkpt>
      <trkpt lat="43.42669" lon="-0.52571">
        <ele>251.52</ele>
        <time>2019-03-17T09:11:24Z</time>
      </trkpt>
      <trkpt lat="43.42711" lon="-0.52634">
        <ele>252.48</ele>
        <time>2019-03-17T09:11:41Z</time>
      </trkpt>
      <trkpt lat="43.42758" lon="-0.52683">
        <ele>251.52</ele>
        <time>2019-03-17T09:11:56Z</time>
      </trkpt>
      <trkpt lat="43.42816" lon="-0.52728">
        <ele>251.04</ele>
        <time>2019-03-17T09:12:13Z</time>
      </trkpt>
      <trkpt lat="43.42844" lon="-0.52741">
        <ele>250.56</ele>
        <time>2019-03-17T09:12:23Z</time>
      </trkpt>
      <trkpt lat="43.42847" lon="-0.52739">
        <ele>250.08</ele>
        <time>2019-03-17T09:12:24Z</time>
      </trkpt>
      <trkpt lat="43.42849" lon="-0.52737">
        <ele>249.6</ele>
        <time>2019-03-17T09:12:25Z</time>
      </trkpt>
      <trkpt lat="43.4285" lon="-0.52734">
        <ele>249.6</ele>
        <time>2019-03-17T09:12:26Z</time>
      </trkpt>
      <trkpt lat="43.42851" lon="-0.5273">
        <ele>249.12</ele>
        <time>2019-03-17T09:12:27Z</time>
      </trkpt>
      <trkpt lat="43.42852" lon="-0.52727">
        <ele>249.12</ele>
        <time>2019-03-17T09:12:28Z</time>
      </trkpt>
      <trkpt lat="43.42853" lon="-0.52723">
        <ele>248.64</ele>
        <time>2019-03-17T09:12:29Z</time>
      </trkpt>
      <trkpt lat="43.42872" lon="-0.52671">
        <ele>244.31</ele>
        <time>2019-03-17T09:12:40Z</time>
      </trkpt>
      <trkpt lat="43.42875" lon="-0.52667">
        <ele>243.83</ele>
        <time>2019-03-17T09:12:41Z</time>
      </trkpt>
      <trkpt lat="43.42879" lon="-0.52662">
        <ele>242.87</ele>
        <time>2019-03-17T09:12:42Z</time>
      </trkpt>
      <trkpt lat="43.42931" lon="-0.52612">
        <ele>239.99</ele>
        <time>2019-03-17T09:12:54Z</time>
      </trkpt>
      <trkpt lat="43.42943" lon="-0.52602">
        <ele>240.95</ele>
        <time>2019-03-17T09:12:58Z</time>
      </trkpt>
      <trkpt lat="43.42956" lon="-0.52587">
        <ele>240.47</ele>
        <time>2019-03-17T09:13:05Z</time>
      </trkpt>
      <trkpt lat="43.42972" lon="-0.52581">
        <ele>240.47</ele>
        <time>2019-03-17T09:13:11Z</time>
      </trkpt>
      <trkpt lat="43.43" lon="-0.52581">
        <ele>237.1</ele>
        <time>2019-03-17T09:13:20Z</time>
      </trkpt>
      <trkpt lat="43.43009" lon="-0.52579">
        <ele>235.66</ele>
        <time>2019-03-17T09:13:23Z</time>
      </trkpt>
      <trkpt lat="43.43018" lon="-0.52582">
        <ele>235.66</ele>
        <time>2019-03-17T09:13:26Z</time>
      </trkpt>
      <trkpt lat="43.43061" lon="-0.52581">
        <ele>233.26</ele>
        <time>2019-03-17T09:13:37Z</time>
      </trkpt>
      <trkpt lat="43.43093" lon="-0.52584">
        <ele>231.33</ele>
        <time>2019-03-17T09:13:47Z</time>
      </trkpt>
      <trkpt lat="43.4312" lon="-0.52584">
        <ele>228.93</ele>
        <time>2019-03-17T09:13:58Z</time>
      </trkpt>
      <trkpt lat="43.43131" lon="-0.52585">
        <ele>228.45</ele>
        <time>2019-03-17T09:14:02Z</time>
      </trkpt>
      <trkpt lat="43.43141" lon="-0.52564">
        <ele>226.53</ele>
        <time>2019-03-17T09:14:09Z</time>
      </trkpt>
      <trkpt lat="43.43151" lon="-0.52537">
        <ele>221.72</ele>
        <time>2019-03-17T09:14:18Z</time>
      </trkpt>
      <trkpt lat="43.43152" lon="-0.52508">
        <ele>214.51</ele>
        <time>2019-03-17T09:14:27Z</time>
      </trkpt>
      <trkpt lat="43.43154" lon="-0.52506">
        <ele>214.03</ele>
        <time>2019-03-17T09:14:28Z</time>
      </trkpt>
      <trkpt lat="43.4316" lon="-0.52501">
        <ele>212.59</ele>
        <time>2019-03-17T09:14:32Z</time>
      </trkpt>
      <trkpt lat="43.43171" lon="-0.52486">
        <ele>209.22</ele>
        <time>2019-03-17T09:14:40Z</time>
      </trkpt>
      <trkpt lat="43.43173" lon="-0.52436">
        <ele>202.49</ele>
        <time>2019-03-17T09:14:52Z</time>
      </trkpt>
      <trkpt lat="43.43175" lon="-0.5241">
        <ele>200.09</ele>
        <time>2019-03-17T09:14:56Z</time>
      </trkpt>
      <trkpt lat="43.43177" lon="-0.52397">
        <ele>199.13</ele>
        <time>2019-03-17T09:14:58Z</time>
      </trkpt>
      <trkpt lat="43.43185" lon="-0.52374">
        <ele>197.21</ele>
        <time>2019-03-17T09:15:02Z</time>
      </trkpt>
      <trkpt lat="43.4324" lon="-0.52312">
        <ele>192.4</ele>
        <time>2019-03-17T09:15:18Z</time>
      </trkpt>
      <trkpt lat="43.43306" lon="-0.52266">
        <ele>189.52</ele>
        <time>2019-03-17T09:15:35Z</time>
      </trkpt>
      <trkpt lat="43.43325" lon="-0.52256">
        <ele>189.04</ele>
        <time>2019-03-17T09:15:41Z</time>
      </trkpt>
      <trkpt lat="43.43334" lon="-0.52264">
        <ele>190</ele>
        <time>2019-03-17T09:15:45Z</time>
      </trkpt>
      <trkpt lat="43.43345" lon="-0.52283">
        <ele>191.44</ele>
        <time>2019-03-17T09:15:53Z</time>
      </trkpt>
      <trkpt lat="43.43362" lon="-0.52275">
        <ele>190.96</ele>
        <time>2019-03-17T09:16:04Z</time>
      </trkpt>
      <trkpt lat="43.43363" lon="-0.52272">
        <ele>190.48</ele>
        <time>2019-03-17T09:16:05Z</time>
      </trkpt>
      <trkpt lat="43.43383" lon="-0.5224">
        <ele>190.96</ele>
        <time>2019-03-17T09:16:22Z</time>
      </trkpt>
      <trkpt lat="43.434" lon="-0.52215">
        <ele>191.44</ele>
        <time>2019-03-17T09:16:38Z</time>
      </trkpt>
      <trkpt lat="43.43422" lon="-0.52215">
        <ele>194.8</ele>
        <time>2019-03-17T09:16:52Z</time>
      </trkpt>
      <trkpt lat="43.43448" lon="-0.5224">
        <ele>200.57</ele>
        <time>2019-03-17T09:17:10Z</time>
      </trkpt>
      <trkpt lat="43.43483" lon="-0.52264">
        <ele>205.86</ele>
        <time>2019-03-17T09:17:30Z</time>
      </trkpt>
      <trkpt lat="43.43514" lon="-0.52295">
        <ele>209.22</ele>
        <time>2019-03-17T09:17:48Z</time>
      </trkpt>
      <trkpt lat="43.43549" lon="-0.52316">
        <ele>211.63</ele>
        <time>2019-03-17T09:18:04Z</time>
      </trkpt>
      <trkpt lat="43.43573" lon="-0.52332">
        <ele>211.63</ele>
        <time>2019-03-17T09:18:16Z</time>
      </trkpt>
      <trkpt lat="43.43606" lon="-0.52359">
        <ele>214.03</ele>
        <time>2019-03-17T09:18:32Z</time>
      </trkpt>
      <trkpt lat="43.43644" lon="-0.52376">
        <ele>216.43</ele>
        <time>2019-03-17T09:18:49Z</time>
      </trkpt>
      <trkpt lat="43.43678" lon="-0.52387">
        <ele>218.84</ele>
        <time>2019-03-17T09:19:04Z</time>
      </trkpt>
      <trkpt lat="43.4371" lon="-0.52401">
        <ele>224.61</ele>
        <time>2019-03-17T09:19:18Z</time>
      </trkpt>
      <trkpt lat="43.4373" lon="-0.52403">
        <ele>225.57</ele>
        <time>2019-03-17T09:19:32Z</time>
      </trkpt>
      <trkpt lat="43.43731" lon="-0.52401">
        <ele>225.57</ele>
        <time>2019-03-17T09:19:52Z</time>
      </trkpt>
      <trkpt lat="43.43729" lon="-0.52403">
        <ele>224.61</ele>
        <time>2019-03-17T09:20:15Z</time>
      </trkpt>
      <trkpt lat="43.43732" lon="-0.52406">
        <ele>223.64</ele>
        <time>2019-03-17T09:20:30Z</time>
      </trkpt>
      <trkpt lat="43.43733" lon="-0.52407">
        <ele>223.64</ele>
        <time>2019-03-17T09:20:31Z</time>
      </trkpt>
      <trkpt lat="43.43733" lon="-0.52409">
        <ele>223.64</ele>
        <time>2019-03-17T09:20:32Z</time>
      </trkpt>
      <trkpt lat="43.43734" lon="-0.52409">
        <ele>223.64</ele>
        <time>2019-03-17T09:20:33Z</time>
      </trkpt>
      <trkpt lat="43.43735" lon="-0.52411">
        <ele>223.64</ele>
        <time>2019-03-17T09:20:34Z</time>
      </trkpt>
      <trkpt lat="43.43736" lon="-0.52412">
        <ele>223.64</ele>
        <time>2019-03-17T09:20:35Z</time>
      </trkpt>
      <trkpt lat="43.43737" lon="-0.52413">
        <ele>223.64</ele>
        <time>2019-03-17T09:20:36Z</time>
      </trkpt>
      <trkpt lat="43.43738" lon="-0.52414">
        <ele>223.64</ele>
        <time>2019-03-17T09:20:37Z</time>
      </trkpt>
      <trkpt lat="43.43739" lon="-0.52415">
        <ele>223.64</ele>
        <time>2019-03-17T09:20:38Z</time>
      </trkpt>
      <trkpt lat="43.43757" lon="-0.52441">
        <ele>224.12</ele>
        <time>2019-03-17T09:20:56Z</time>
      </trkpt>
      <trkpt lat="43.4378" lon="-0.52478">
        <ele>227.01</ele>
        <time>2019-03-17T09:21:11Z</time>
      </trkpt>
      <trkpt lat="43.43803" lon="-0.52519">
        <ele>231.81</ele>
        <time>2019-03-17T09:21:24Z</time>
      </trkpt>
      <trkpt lat="43.43824" lon="-0.52575">
        <ele>232.3</ele>
        <time>2019-03-17T09:21:39Z</time>
      </trkpt>
      <trkpt lat="43.43854" lon="-0.52629">
        <ele>228.93</ele>
        <time>2019-03-17T09:21:50Z</time>
      </trkpt>
      <trkpt lat="43.43863" lon="-0.52654">
        <ele>227.97</ele>
        <time>2019-03-17T09:21:53Z</time>
      </trkpt>
      <trkpt lat="43.43865" lon="-0.52663">
        <ele>227.49</ele>
        <time>2019-03-17T09:21:54Z</time>
      </trkpt>
      <trkpt lat="43.43866" lon="-0.52672">
        <ele>227.01</ele>
        <time>2019-03-17T09:21:55Z</time>
      </trkpt>
      <trkpt lat="43.43901" lon="-0.52788">
        <ele>223.16</ele>
        <time>2019-03-17T09:22:06Z</time>
      </trkpt>
      <trkpt lat="43.43904" lon="-0.52797">
        <ele>223.16</ele>
        <time>2019-03-17T09:22:07Z</time>
      </trkpt>
      <trkpt lat="43.43906" lon="-0.52807">
        <ele>222.68</ele>
        <time>2019-03-17T09:22:08Z</time>
      </trkpt>
      <trkpt lat="43.43909" lon="-0.52921">
        <ele>211.15</ele>
        <time>2019-03-17T09:22:17Z</time>
      </trkpt>
      <trkpt lat="43.43911" lon="-0.52936">
        <ele>209.22</ele>
        <time>2019-03-17T09:22:18Z</time>
      </trkpt>
      <trkpt lat="43.43916" lon="-0.52951">
        <ele>207.78</ele>
        <time>2019-03-17T09:22:19Z</time>
      </trkpt>
      <trkpt lat="43.43927" lon="-0.52991">
        <ele>203.46</ele>
        <time>2019-03-17T09:22:22Z</time>
      </trkpt>
      <trkpt lat="43.43928" lon="-0.53005">
        <ele>202.01</ele>
        <time>2019-03-17T09:22:23Z</time>
      </trkpt>
      <trkpt lat="43.43926" lon="-0.53021">
        <ele>200.09</ele>
        <time>2019-03-17T09:22:24Z</time>
      </trkpt>
      <trkpt lat="43.43923" lon="-0.53036">
        <ele>198.17</ele>
        <time>2019-03-17T09:22:25Z</time>
      </trkpt>
      <trkpt lat="43.4392" lon="-0.53052">
        <ele>196.73</ele>
        <time>2019-03-17T09:22:26Z</time>
      </trkpt>
      <trkpt lat="43.43917" lon="-0.53068">
        <ele>194.8</ele>
        <time>2019-03-17T09:22:27Z</time>
      </trkpt>
      <trkpt lat="43.43917" lon="-0.53082">
        <ele>193.36</ele>
        <time>2019-03-17T09:22:28Z</time>
      </trkpt>
      <trkpt lat="43.43917" lon="-0.53096">
        <ele>192.4</ele>
        <time>2019-03-17T09:22:29Z</time>
      </trkpt>
      <trkpt lat="43.4392" lon="-0.53109">
        <ele>191.44</ele>
        <time>2019-03-17T09:22:30Z</time>
      </trkpt>
      <trkpt lat="43.43925" lon="-0.53122">
        <ele>190.96</ele>
        <time>2019-03-17T09:22:31Z</time>
      </trkpt>
      <trkpt lat="43.4393" lon="-0.53133">
        <ele>190.96</ele>
        <time>2019-03-17T09:22:32Z</time>
      </trkpt>
      <trkpt lat="43.4397" lon="-0.53215">
        <ele>191.44</ele>
        <time>2019-03-17T09:22:41Z</time>
      </trkpt>
      <trkpt lat="43.43999" lon="-0.53322">
        <ele>187.11</ele>
        <time>2019-03-17T09:22:55Z</time>
      </trkpt>
      <trkpt lat="43.44013" lon="-0.53422">
        <ele>181.83</ele>
        <time>2019-03-17T09:23:06Z</time>
      </trkpt>
      <trkpt lat="43.44025" lon="-0.53484">
        <ele>181.35</ele>
        <time>2019-03-17T09:23:18Z</time>
      </trkpt>
      <trkpt lat="43.44025" lon="-0.53498">
        <ele>180.38</ele>
        <time>2019-03-17T09:23:28Z</time>
      </trkpt>
      <trkpt lat="43.44026" lon="-0.53502">
        <ele>182.31</ele>
        <time>2019-03-17T09:23:42Z</time>
      </trkpt>
      <trkpt lat="43.44043" lon="-0.53542">
        <ele>184.71</ele>
        <time>2019-03-17T09:23:54Z</time>
      </trkpt>
      <trkpt lat="43.44064" lon="-0.53624">
        <ele>183.27</ele>
        <time>2019-03-17T09:24:08Z</time>
      </trkpt>
      <trkpt lat="43.44069" lon="-0.53653">
        <ele>182.31</ele>
        <time>2019-03-17T09:24:12Z</time>
      </trkpt>
      <trkpt lat="43.44072" lon="-0.53688">
        <ele>179.9</ele>
        <time>2019-03-17T09:24:17Z</time>
      </trkpt>
      <trkpt lat="43.44074" lon="-0.53695">
        <ele>179.9</ele>
        <time>2019-03-17T09:24:18Z</time>
      </trkpt>
      <trkpt lat="43.44111" lon="-0.53786">
        <ele>180.38</ele>
        <time>2019-03-17T09:24:30Z</time>
      </trkpt>
      <trkpt lat="43.44142" lon="-0.53874">
        <ele>179.42</ele>
        <time>2019-03-17T09:24:43Z</time>
      </trkpt>
      <trkpt lat="43.44158" lon="-0.53941">
        <ele>180.87</ele>
        <time>2019-03-17T09:24:57Z</time>
      </trkpt>
      <trkpt lat="43.44177" lon="-0.53985">
        <ele>183.27</ele>
        <time>2019-03-17T09:25:10Z</time>
      </trkpt>
      <trkpt lat="43.44184" lon="-0.53997">
        <ele>184.71</ele>
        <time>2019-03-17T09:25:15Z</time>
      </trkpt>
      <trkpt lat="43.44186" lon="-0.54004">
        <ele>186.63</ele>
        <time>2019-03-17T09:25:28Z</time>
      </trkpt>
      <trkpt lat="43.44187" lon="-0.54008">
        <ele>186.15</ele>
        <time>2019-03-17T09:25:56Z</time>
      </trkpt>
      <trkpt lat="43.44189" lon="-0.54006">
        <ele>182.79</ele>
        <time>2019-03-17T09:26:29Z</time>
      </trkpt>
      <trkpt lat="43.44188" lon="-0.54007">
        <ele>184.23</ele>
        <time>2019-03-17T09:26:54Z</time>
      </trkpt>
      <trkpt lat="43.44189" lon="-0.54009">
        <ele>185.19</ele>
        <time>2019-03-17T09:27:33Z</time>
      </trkpt>
      <trkpt lat="43.44192" lon="-0.5401">
        <ele>185.19</ele>
        <time>2019-03-17T09:28:09Z</time>
      </trkpt>
      <trkpt lat="43.44193" lon="-0.54011">
        <ele>185.19</ele>
        <time>2019-03-17T09:28:40Z</time>
      </trkpt>
      <trkpt lat="43.44193" lon="-0.54014">
        <ele>188.08</ele>
        <time>2019-03-17T09:29:11Z</time>
      </trkpt>
      <trkpt lat="43.44192" lon="-0.5401">
        <ele>187.11</ele>
        <time>2019-03-17T09:29:44Z</time>
      </trkpt>
      <trkpt lat="43.44187" lon="-0.54011">
        <ele>188.08</ele>
        <time>2019-03-17T09:30:20Z</time>
      </trkpt>
      <trkpt lat="43.44188" lon="-0.54007">
        <ele>189.52</ele>
        <time>2019-03-17T09:30:36Z</time>
      </trkpt>
      <trkpt lat="43.44189" lon="-0.54008">
        <ele>186.63</ele>
        <time>2019-03-17T09:30:55Z</time>
      </trkpt>
      <trkpt lat="43.44198" lon="-0.54025">
        <ele>186.63</ele>
        <time>2019-03-17T09:31:06Z</time>
      </trkpt>
      <trkpt lat="43.4422" lon="-0.54066">
        <ele>188.08</ele>
        <time>2019-03-17T09:31:20Z</time>
      </trkpt>
      <trkpt lat="43.44234" lon="-0.54112">
        <ele>187.11</ele>
        <time>2019-03-17T09:31:32Z</time>
      </trkpt>
      <trkpt lat="43.44236" lon="-0.54157">
        <ele>181.83</ele>
        <time>2019-03-17T09:31:40Z</time>
      </trkpt>
      <trkpt lat="43.4424" lon="-0.54234">
        <ele>179.42</ele>
        <time>2019-03-17T09:31:54Z</time>
      </trkpt>
      <trkpt lat="43.44248" lon="-0.54298">
        <ele>178.46</ele>
        <time>2019-03-17T09:32:07Z</time>
      </trkpt>
      <trkpt lat="43.44262" lon="-0.54367">
        <ele>175.1</ele>
        <time>2019-03-17T09:32:21Z</time>
      </trkpt>
      <trkpt lat="43.44273" lon="-0.54399">
        <ele>175.1</ele>
        <time>2019-03-17T09:32:26Z</time>
      </trkpt>
      <trkpt lat="43.44275" lon="-0.54405">
        <ele>175.58</ele>
        <time>2019-03-17T09:32:27Z</time>
      </trkpt>
      <trkpt lat="43.44276" lon="-0.54411">
        <ele>175.58</ele>
        <time>2019-03-17T09:32:28Z</time>
      </trkpt>
      <trkpt lat="43.44296" lon="-0.54481">
        <ele>177.02</ele>
        <time>2019-03-17T09:32:43Z</time>
      </trkpt>
      <trkpt lat="43.44316" lon="-0.54542">
        <ele>175.58</ele>
        <time>2019-03-17T09:32:58Z</time>
      </trkpt>
      <trkpt lat="43.44318" lon="-0.54556">
        <ele>175.1</ele>
        <time>2019-03-17T09:33:02Z</time>
      </trkpt>
      <trkpt lat="43.44342" lon="-0.54602">
        <ele>176.54</ele>
        <time>2019-03-17T09:33:17Z</time>
      </trkpt>
      <trkpt lat="43.44365" lon="-0.54642">
        <ele>177.02</ele>
        <time>2019-03-17T09:33:28Z</time>
      </trkpt>
      <trkpt lat="43.44366" lon="-0.54646">
        <ele>177.02</ele>
        <time>2019-03-17T09:33:29Z</time>
      </trkpt>
      <trkpt lat="43.4438" lon="-0.54684">
        <ele>177.5</ele>
        <time>2019-03-17T09:33:40Z</time>
      </trkpt>
      <trkpt lat="43.44409" lon="-0.54742">
        <ele>176.06</ele>
        <time>2019-03-17T09:33:55Z</time>
      </trkpt>
      <trkpt lat="43.44438" lon="-0.54803">
        <ele>176.06</ele>
        <time>2019-03-17T09:34:12Z</time>
      </trkpt>
      <trkpt lat="43.44462" lon="-0.54856">
        <ele>175.58</ele>
        <time>2019-03-17T09:34:26Z</time>
      </trkpt>
      <trkpt lat="43.44487" lon="-0.54918">
        <ele>175.1</ele>
        <time>2019-03-17T09:34:41Z</time>
      </trkpt>
      <trkpt lat="43.44503" lon="-0.54988">
        <ele>175.1</ele>
        <time>2019-03-17T09:34:58Z</time>
      </trkpt>
      <trkpt lat="43.44527" lon="-0.55041">
        <ele>175.1</ele>
        <time>2019-03-17T09:35:13Z</time>
      </trkpt>
      <trkpt lat="43.44551" lon="-0.55108">
        <ele>175.58</ele>
        <time>2019-03-17T09:35:30Z</time>
      </trkpt>
      <trkpt lat="43.4458" lon="-0.5516">
        <ele>175.58</ele>
        <time>2019-03-17T09:35:45Z</time>
      </trkpt>
      <trkpt lat="43.44606" lon="-0.55223">
        <ele>174.62</ele>
        <time>2019-03-17T09:36:01Z</time>
      </trkpt>
      <trkpt lat="43.44634" lon="-0.55256">
        <ele>174.62</ele>
        <time>2019-03-17T09:36:12Z</time>
      </trkpt>
      <trkpt lat="43.44638" lon="-0.55257">
        <ele>174.62</ele>
        <time>2019-03-17T09:36:13Z</time>
      </trkpt>
      <trkpt lat="43.44642" lon="-0.55257">
        <ele>174.62</ele>
        <time>2019-03-17T09:36:14Z</time>
      </trkpt>
      <trkpt lat="43.44646" lon="-0.55255">
        <ele>174.62</ele>
        <time>2019-03-17T09:36:15Z</time>
      </trkpt>
      <trkpt lat="43.44649" lon="-0.55253">
        <ele>174.62</ele>
        <time>2019-03-17T09:36:16Z</time>
      </trkpt>
      <trkpt lat="43.44665" lon="-0.55245">
        <ele>174.14</ele>
        <time>2019-03-17T09:36:21Z</time>
      </trkpt>
      <trkpt lat="43.44668" lon="-0.55246">
        <ele>174.14</ele>
        <time>2019-03-17T09:36:22Z</time>
      </trkpt>
      <trkpt lat="43.44671" lon="-0.55249">
        <ele>174.14</ele>
        <time>2019-03-17T09:36:23Z</time>
      </trkpt>
      <trkpt lat="43.44674" lon="-0.55253">
        <ele>173.66</ele>
        <time>2019-03-17T09:36:24Z</time>
      </trkpt>
      <trkpt lat="43.44677" lon="-0.55257">
        <ele>173.66</ele>
        <time>2019-03-17T09:36:25Z</time>
      </trkpt>
      <trkpt lat="43.44679" lon="-0.55261">
        <ele>173.66</ele>
        <time>2019-03-17T09:36:26Z</time>
      </trkpt>
      <trkpt lat="43.44683" lon="-0.55271">
        <ele>173.66</ele>
        <time>2019-03-17T09:36:28Z</time>
      </trkpt>
      <trkpt lat="43.44685" lon="-0.55275">
        <ele>173.66</ele>
        <time>2019-03-17T09:36:29Z</time>
      </trkpt>
      <trkpt lat="43.44689" lon="-0.5528">
        <ele>173.66</ele>
        <time>2019-03-17T09:36:30Z</time>
      </trkpt>
      <trkpt lat="43.44692" lon="-0.55284">
        <ele>173.66</ele>
        <time>2019-03-17T09:36:31Z</time>
      </trkpt>
      <trkpt lat="43.44695" lon="-0.55288">
        <ele>173.66</ele>
        <time>2019-03-17T09:36:32Z</time>
      </trkpt>
      <trkpt lat="43.44719" lon="-0.55327">
        <ele>174.62</ele>
        <time>2019-03-17T09:36:43Z</time>
      </trkpt>
      <trkpt lat="43.44758" lon="-0.55366">
        <ele>176.06</ele>
        <time>2019-03-17T09:36:56Z</time>
      </trkpt>
      <trkpt lat="43.44763" lon="-0.55374">
        <ele>177.02</ele>
        <time>2019-03-17T09:36:59Z</time>
      </trkpt>
      <trkpt lat="43.44764" lon="-0.55378">
        <ele>177.5</ele>
        <time>2019-03-17T09:37:00Z</time>
      </trkpt>
      <trkpt lat="43.44762" lon="-0.55381">
        <ele>177.5</ele>
        <time>2019-03-17T09:37:01Z</time>
      </trkpt>
      <trkpt lat="43.44761" lon="-0.55384">
        <ele>177.5</ele>
        <time>2019-03-17T09:37:02Z</time>
      </trkpt>
      <trkpt lat="43.44759" lon="-0.55387">
        <ele>177.5</ele>
        <time>2019-03-17T09:37:03Z</time>
      </trkpt>
      <trkpt lat="43.44729" lon="-0.55427">
        <ele>177.5</ele>
        <time>2019-03-17T09:37:15Z</time>
      </trkpt>
      <trkpt lat="43.44685" lon="-0.55479">
        <ele>177.02</ele>
        <time>2019-03-17T09:37:31Z</time>
      </trkpt>
      <trkpt lat="43.44643" lon="-0.5553">
        <ele>176.54</ele>
        <time>2019-03-17T09:37:48Z</time>
      </trkpt>
      <trkpt lat="43.44603" lon="-0.55576">
        <ele>177.02</ele>
        <time>2019-03-17T09:38:02Z</time>
      </trkpt>
      <trkpt lat="43.44557" lon="-0.55631">
        <ele>176.54</ele>
        <time>2019-03-17T09:38:20Z</time>
      </trkpt>
      <trkpt lat="43.44506" lon="-0.55695">
        <ele>176.54</ele>
        <time>2019-03-17T09:38:39Z</time>
      </trkpt>
      <trkpt lat="43.44475" lon="-0.5574">
        <ele>177.5</ele>
        <time>2019-03-17T09:38:54Z</time>
      </trkpt>
      <trkpt lat="43.44469" lon="-0.55751">
        <ele>177.98</ele>
        <time>2019-03-17T09:39:00Z</time>
      </trkpt>
      <trkpt lat="43.44469" lon="-0.55754">
        <ele>178.46</ele>
        <time>2019-03-17T09:39:01Z</time>
      </trkpt>
      <trkpt lat="43.44488" lon="-0.55795">
        <ele>178.46</ele>
        <time>2019-03-17T09:39:16Z</time>
      </trkpt>
      <trkpt lat="43.44492" lon="-0.5584">
        <ele>180.87</ele>
        <time>2019-03-17T09:39:30Z</time>
      </trkpt>
      <trkpt lat="43.44496" lon="-0.5589">
        <ele>183.27</ele>
        <time>2019-03-17T09:39:47Z</time>
      </trkpt>
      <trkpt lat="43.44492" lon="-0.5595">
        <ele>181.83</ele>
        <time>2019-03-17T09:40:06Z</time>
      </trkpt>
      <trkpt lat="43.44491" lon="-0.55953">
        <ele>181.83</ele>
        <time>2019-03-17T09:40:07Z</time>
      </trkpt>
      <trkpt lat="43.44489" lon="-0.55956">
        <ele>181.83</ele>
        <time>2019-03-17T09:40:08Z</time>
      </trkpt>
      <trkpt lat="43.44464" lon="-0.55999">
        <ele>178.94</ele>
        <time>2019-03-17T09:40:21Z</time>
      </trkpt>
      <trkpt lat="43.4443" lon="-0.56026">
        <ele>180.38</ele>
        <time>2019-03-17T09:40:32Z</time>
      </trkpt>
      <trkpt lat="43.44401" lon="-0.56028">
        <ele>186.15</ele>
        <time>2019-03-17T09:40:46Z</time>
      </trkpt>
      <trkpt lat="43.44372" lon="-0.56024">
        <ele>192.4</ele>
        <time>2019-03-17T09:41:01Z</time>
      </trkpt>
      <trkpt lat="43.44353" lon="-0.56001">
        <ele>196.73</ele>
        <time>2019-03-17T09:41:15Z</time>
      </trkpt>
      <trkpt lat="43.44347" lon="-0.55987">
        <ele>200.09</ele>
        <time>2019-03-17T09:41:22Z</time>
      </trkpt>
      <trkpt lat="43.44346" lon="-0.55982">
        <ele>201.53</ele>
        <time>2019-03-17T09:41:26Z</time>
      </trkpt>
      <trkpt lat="43.44345" lon="-0.5598">
        <ele>201.53</ele>
        <time>2019-03-17T09:41:27Z</time>
      </trkpt>
      <trkpt lat="43.44345" lon="-0.55978">
        <ele>202.01</ele>
        <time>2019-03-17T09:41:28Z</time>
      </trkpt>
      <trkpt lat="43.44339" lon="-0.55967">
        <ele>204.42</ele>
        <time>2019-03-17T09:41:35Z</time>
      </trkpt>
      <trkpt lat="43.44338" lon="-0.55965">
        <ele>204.9</ele>
        <time>2019-03-17T09:41:36Z</time>
      </trkpt>
      <trkpt lat="43.44337" lon="-0.55962">
        <ele>205.38</ele>
        <time>2019-03-17T09:41:37Z</time>
      </trkpt>
      <trkpt lat="43.44328" lon="-0.55935">
        <ele>210.67</ele>
        <time>2019-03-17T09:41:52Z</time>
      </trkpt>
      <trkpt lat="43.44321" lon="-0.55922">
        <ele>212.11</ele>
        <time>2019-03-17T09:42:00Z</time>
      </trkpt>
      <trkpt lat="43.44311" lon="-0.55898">
        <ele>216.91</ele>
        <time>2019-03-17T09:42:13Z</time>
      </trkpt>
      <trkpt lat="43.44293" lon="-0.55873">
        <ele>218.36</ele>
        <time>2019-03-17T09:42:27Z</time>
      </trkpt>
      <trkpt lat="43.44268" lon="-0.55846">
        <ele>217.88</ele>
        <time>2019-03-17T09:42:42Z</time>
      </trkpt>
      <trkpt lat="43.44244" lon="-0.55819">
        <ele>216.91</ele>
        <time>2019-03-17T09:42:57Z</time>
      </trkpt>
      <trkpt lat="43.44217" lon="-0.55795">
        <ele>218.36</ele>
        <time>2019-03-17T09:43:12Z</time>
      </trkpt>
      <trkpt lat="43.44196" lon="-0.55776">
        <ele>219.32</ele>
        <time>2019-03-17T09:43:25Z</time>
      </trkpt>
      <trkpt lat="43.44167" lon="-0.55751">
        <ele>219.32</ele>
        <time>2019-03-17T09:43:41Z</time>
      </trkpt>
      <trkpt lat="43.44154" lon="-0.55743">
        <ele>219.8</ele>
        <time>2019-03-17T09:43:49Z</time>
      </trkpt>
      <trkpt lat="43.44152" lon="-0.55742">
        <ele>219.8</ele>
        <time>2019-03-17T09:43:50Z</time>
      </trkpt>
      <trkpt lat="43.4415" lon="-0.55742">
        <ele>219.8</ele>
        <time>2019-03-17T09:44:01Z</time>
      </trkpt>
      <trkpt lat="43.44148" lon="-0.5574">
        <ele>218.84</ele>
        <time>2019-03-17T09:44:27Z</time>
      </trkpt>
      <trkpt lat="43.44148" lon="-0.5574">
        <ele>219.8</ele>
        <time>2019-03-17T09:44:42Z</time>
      </trkpt>
      <trkpt lat="43.4415" lon="-0.5574">
        <ele>217.88</ele>
        <time>2019-03-17T09:45:04Z</time>
      </trkpt>
      <trkpt lat="43.44149" lon="-0.55739">
        <ele>217.4</ele>
        <time>2019-03-17T09:45:25Z</time>
      </trkpt>
      <trkpt lat="43.44146" lon="-0.55739">
        <ele>216.91</ele>
        <time>2019-03-17T09:45:28Z</time>
      </trkpt>
      <trkpt lat="43.44144" lon="-0.55738">
        <ele>216.91</ele>
        <time>2019-03-17T09:45:29Z</time>
      </trkpt>
      <trkpt lat="43.44143" lon="-0.55736">
        <ele>216.91</ele>
        <time>2019-03-17T09:45:30Z</time>
      </trkpt>
      <trkpt lat="43.44142" lon="-0.55732">
        <ele>216.91</ele>
        <time>2019-03-17T09:45:31Z</time>
      </trkpt>
      <trkpt lat="43.44141" lon="-0.55729">
        <ele>216.91</ele>
        <time>2019-03-17T09:45:32Z</time>
      </trkpt>
      <trkpt lat="43.44118" lon="-0.55665">
        <ele>215.95</ele>
        <time>2019-03-17T09:45:46Z</time>
      </trkpt>
      <trkpt lat="43.44074" lon="-0.55564">
        <ele>212.59</ele>
        <time>2019-03-17T09:46:04Z</time>
      </trkpt>
      <trkpt lat="43.44029" lon="-0.55473">
        <ele>213.07</ele>
        <time>2019-03-17T09:46:21Z</time>
      </trkpt>
      <trkpt lat="43.44023" lon="-0.55464">
        <ele>213.07</ele>
        <time>2019-03-17T09:46:23Z</time>
      </trkpt>
      <trkpt lat="43.44019" lon="-0.5546">
        <ele>213.55</ele>
        <time>2019-03-17T09:46:24Z</time>
      </trkpt>
      <trkpt lat="43.44016" lon="-0.55457">
        <ele>213.55</ele>
        <time>2019-03-17T09:46:25Z</time>
      </trkpt>
      <trkpt lat="43.44012" lon="-0.55454">
        <ele>214.03</ele>
        <time>2019-03-17T09:46:26Z</time>
      </trkpt>
      <trkpt lat="43.44008" lon="-0.55451">
        <ele>214.03</ele>
        <time>2019-03-17T09:46:27Z</time>
      </trkpt>
      <trkpt lat="43.44005" lon="-0.55449">
        <ele>214.51</ele>
        <time>2019-03-17T09:46:28Z</time>
      </trkpt>
      <trkpt lat="43.44001" lon="-0.55447">
        <ele>214.51</ele>
        <time>2019-03-17T09:46:29Z</time>
      </trkpt>
      <trkpt lat="43.43951" lon="-0.55426">
        <ele>217.4</ele>
        <time>2019-03-17T09:46:44Z</time>
      </trkpt>
      <trkpt lat="43.43912" lon="-0.55406">
        <ele>219.8</ele>
        <time>2019-03-17T09:46:57Z</time>
      </trkpt>
      <trkpt lat="43.43874" lon="-0.55378">
        <ele>223.16</ele>
        <time>2019-03-17T09:47:12Z</time>
      </trkpt>
      <trkpt lat="43.43872" lon="-0.55377">
        <ele>223.64</ele>
        <time>2019-03-17T09:47:13Z</time>
      </trkpt>
      <trkpt lat="43.43862" lon="-0.55408">
        <ele>221.72</ele>
        <time>2019-03-17T09:47:25Z</time>
      </trkpt>
      <trkpt lat="43.43866" lon="-0.55432">
        <ele>222.2</ele>
        <time>2019-03-17T09:47:33Z</time>
      </trkpt>
      <trkpt lat="43.4387" lon="-0.55467">
        <ele>223.16</ele>
        <time>2019-03-17T09:47:46Z</time>
      </trkpt>
      <trkpt lat="43.43856" lon="-0.55509">
        <ele>227.49</ele>
        <time>2019-03-17T09:48:01Z</time>
      </trkpt>
      <trkpt lat="43.43832" lon="-0.55563">
        <ele>230.85</ele>
        <time>2019-03-17T09:48:18Z</time>
      </trkpt>
      <trkpt lat="43.43816" lon="-0.5562">
        <ele>231.81</ele>
        <time>2019-03-17T09:48:36Z</time>
      </trkpt>
      <trkpt lat="43.43812" lon="-0.55669">
        <ele>233.26</ele>
        <time>2019-03-17T09:48:53Z</time>
      </trkpt>
      <trkpt lat="43.43807" lon="-0.55717">
        <ele>232.78</ele>
        <time>2019-03-17T09:49:09Z</time>
      </trkpt>
      <trkpt lat="43.43803" lon="-0.55754">
        <ele>231.33</ele>
        <time>2019-03-17T09:49:22Z</time>
      </trkpt>
      <trkpt lat="43.43794" lon="-0.5578">
        <ele>230.37</ele>
        <time>2019-03-17T09:49:37Z</time>
      </trkpt>
      <trkpt lat="43.43781" lon="-0.55797">
        <ele>231.33</ele>
        <time>2019-03-17T09:49:52Z</time>
      </trkpt>
      <trkpt lat="43.43768" lon="-0.55814">
        <ele>229.89</ele>
        <time>2019-03-17T09:50:05Z</time>
      </trkpt>
      <trkpt lat="43.43744" lon="-0.55838">
        <ele>227.49</ele>
        <time>2019-03-17T09:50:18Z</time>
      </trkpt>
      <trkpt lat="43.43725" lon="-0.55858">
        <ele>225.09</ele>
        <time>2019-03-17T09:50:24Z</time>
      </trkpt>
      <trkpt lat="43.43721" lon="-0.55862">
        <ele>224.61</ele>
        <time>2019-03-17T09:50:25Z</time>
      </trkpt>
      <trkpt lat="43.43718" lon="-0.55864">
        <ele>224.12</ele>
        <time>2019-03-17T09:50:26Z</time>
      </trkpt>
      <trkpt lat="43.43714" lon="-0.55867">
        <ele>223.64</ele>
        <time>2019-03-17T09:50:27Z</time>
      </trkpt>
      <trkpt lat="43.4371" lon="-0.55868">
        <ele>223.64</ele>
        <time>2019-03-17T09:50:28Z</time>
      </trkpt>
      <trkpt lat="43.43706" lon="-0.55868">
        <ele>223.16</ele>
        <time>2019-03-17T09:50:29Z</time>
      </trkpt>
      <trkpt lat="43.43701" lon="-0.55868">
        <ele>222.68</ele>
        <time>2019-03-17T09:50:30Z</time>
      </trkpt>
      <trkpt lat="43.43696" lon="-0.55866">
        <ele>222.2</ele>
        <time>2019-03-17T09:50:31Z</time>
      </trkpt>
      <trkpt lat="43.43691" lon="-0.55863">
        <ele>221.72</ele>
        <time>2019-03-17T09:50:32Z</time>
      </trkpt>
      <trkpt lat="43.43686" lon="-0.55859">
        <ele>221.72</ele>
        <time>2019-03-17T09:50:33Z</time>
      </trkpt>
      <trkpt lat="43.43682" lon="-0.55855">
        <ele>221.24</ele>
        <time>2019-03-17T09:50:34Z</time>
      </trkpt>
      <trkpt lat="43.43678" lon="-0.5585">
        <ele>220.28</ele>
        <time>2019-03-17T09:50:35Z</time>
      </trkpt>
      <trkpt lat="43.43674" lon="-0.55846">
        <ele>219.8</ele>
        <time>2019-03-17T09:50:36Z</time>
      </trkpt>
      <trkpt lat="43.43669" lon="-0.55842">
        <ele>219.32</ele>
        <time>2019-03-17T09:50:37Z</time>
      </trkpt>
      <trkpt lat="43.43665" lon="-0.55838">
        <ele>218.84</ele>
        <time>2019-03-17T09:50:38Z</time>
      </trkpt>
      <trkpt lat="43.43661" lon="-0.55834">
        <ele>217.88</ele>
        <time>2019-03-17T09:50:39Z</time>
      </trkpt>
      <trkpt lat="43.43656" lon="-0.5583">
        <ele>217.4</ele>
        <time>2019-03-17T09:50:40Z</time>
      </trkpt>
      <trkpt lat="43.43651" lon="-0.55825">
        <ele>216.43</ele>
        <time>2019-03-17T09:50:41Z</time>
      </trkpt>
      <trkpt lat="43.43633" lon="-0.55807">
        <ele>214.03</ele>
        <time>2019-03-17T09:50:44Z</time>
      </trkpt>
      <trkpt lat="43.43627" lon="-0.558">
        <ele>213.55</ele>
        <time>2019-03-17T09:50:45Z</time>
      </trkpt>
      <trkpt lat="43.43586" lon="-0.5576">
        <ele>209.7</ele>
        <time>2019-03-17T09:50:53Z</time>
      </trkpt>
      <trkpt lat="43.43574" lon="-0.55746">
        <ele>207.3</ele>
        <time>2019-03-17T09:50:58Z</time>
      </trkpt>
      <trkpt lat="43.43572" lon="-0.55747">
        <ele>207.3</ele>
        <time>2019-03-17T09:50:59Z</time>
      </trkpt>
      <trkpt lat="43.4357" lon="-0.55749">
        <ele>207.3</ele>
        <time>2019-03-17T09:51:00Z</time>
      </trkpt>
      <trkpt lat="43.4357" lon="-0.55752">
        <ele>207.3</ele>
        <time>2019-03-17T09:51:01Z</time>
      </trkpt>
      <trkpt lat="43.43569" lon="-0.55755">
        <ele>207.3</ele>
        <time>2019-03-17T09:51:02Z</time>
      </trkpt>
      <trkpt lat="43.43569" lon="-0.55757">
        <ele>207.3</ele>
        <time>2019-03-17T09:51:03Z</time>
      </trkpt>
      <trkpt lat="43.43571" lon="-0.55787">
        <ele>209.22</ele>
        <time>2019-03-17T09:51:17Z</time>
      </trkpt>
      <trkpt lat="43.4357" lon="-0.55812">
        <ele>210.67</ele>
        <time>2019-03-17T09:51:32Z</time>
      </trkpt>
      <trkpt lat="43.43567" lon="-0.55835">
        <ele>213.07</ele>
        <time>2019-03-17T09:51:45Z</time>
      </trkpt>
      <trkpt lat="43.43564" lon="-0.5586">
        <ele>215.95</ele>
        <time>2019-03-17T09:51:58Z</time>
      </trkpt>
      <trkpt lat="43.4356" lon="-0.55869">
        <ele>218.36</ele>
        <time>2019-03-17T09:52:04Z</time>
      </trkpt>
      <trkpt lat="43.43552" lon="-0.55895">
        <ele>221.24</ele>
        <time>2019-03-17T09:52:17Z</time>
      </trkpt>
      <trkpt lat="43.43554" lon="-0.55937">
        <ele>219.8</ele>
        <time>2019-03-17T09:52:30Z</time>
      </trkpt>
      <trkpt lat="43.43556" lon="-0.55942">
        <ele>219.32</ele>
        <time>2019-03-17T09:52:31Z</time>
      </trkpt>
      <trkpt lat="43.43559" lon="-0.55953">
        <ele>218.36</ele>
        <time>2019-03-17T09:52:33Z</time>
      </trkpt>
      <trkpt lat="43.43561" lon="-0.5596">
        <ele>217.4</ele>
        <time>2019-03-17T09:52:34Z</time>
      </trkpt>
      <trkpt lat="43.43563" lon="-0.55966">
        <ele>216.91</ele>
        <time>2019-03-17T09:52:35Z</time>
      </trkpt>
      <trkpt lat="43.43565" lon="-0.55972">
        <ele>216.43</ele>
        <time>2019-03-17T09:52:36Z</time>
      </trkpt>
      <trkpt lat="43.43568" lon="-0.55979">
        <ele>215.95</ele>
        <time>2019-03-17T09:52:37Z</time>
      </trkpt>
      <trkpt lat="43.43571" lon="-0.55985">
        <ele>215.47</ele>
        <time>2019-03-17T09:52:38Z</time>
      </trkpt>
      <trkpt lat="43.43575" lon="-0.55996">
        <ele>214.51</ele>
        <time>2019-03-17T09:52:40Z</time>
      </trkpt>
      <trkpt lat="43.43578" lon="-0.56001">
        <ele>214.51</ele>
        <time>2019-03-17T09:52:41Z</time>
      </trkpt>
      <trkpt lat="43.43584" lon="-0.56019">
        <ele>213.07</ele>
        <time>2019-03-17T09:52:44Z</time>
      </trkpt>
      <trkpt lat="43.43593" lon="-0.56038">
        <ele>213.55</ele>
        <time>2019-03-17T09:52:53Z</time>
      </trkpt>
      <trkpt lat="43.43595" lon="-0.56044">
        <ele>215.95</ele>
        <time>2019-03-17T09:53:15Z</time>
      </trkpt>
      <trkpt lat="43.43595" lon="-0.56045">
        <ele>216.43</ele>
        <time>2019-03-17T09:53:29Z</time>
      </trkpt>
      <trkpt lat="43.43596" lon="-0.56047">
        <ele>216.43</ele>
        <time>2019-03-17T09:53:30Z</time>
      </trkpt>
      <trkpt lat="43.43598" lon="-0.56049">
        <ele>215.95</ele>
        <time>2019-03-17T09:53:31Z</time>
      </trkpt>
      <trkpt lat="43.436" lon="-0.56051">
        <ele>215.95</ele>
        <time>2019-03-17T09:53:32Z</time>
      </trkpt>
      <trkpt lat="43.43602" lon="-0.56054">
        <ele>215.95</ele>
        <time>2019-03-17T09:53:33Z</time>
      </trkpt>
      <trkpt lat="43.43605" lon="-0.56057">
        <ele>216.43</ele>
        <time>2019-03-17T09:53:34Z</time>
      </trkpt>
      <trkpt lat="43.43608" lon="-0.5606">
        <ele>216.43</ele>
        <time>2019-03-17T09:53:35Z</time>
      </trkpt>
      <trkpt lat="43.4361" lon="-0.56064">
        <ele>216.91</ele>
        <time>2019-03-17T09:53:36Z</time>
      </trkpt>
      <trkpt lat="43.43629" lon="-0.56095">
        <ele>215.47</ele>
        <time>2019-03-17T09:53:43Z</time>
      </trkpt>
      <trkpt lat="43.43632" lon="-0.561">
        <ele>215.47</ele>
        <time>2019-03-17T09:53:44Z</time>
      </trkpt>
      <trkpt lat="43.43652" lon="-0.56126">
        <ele>214.51</ele>
        <time>2019-03-17T09:53:49Z</time>
      </trkpt>
      <trkpt lat="43.43656" lon="-0.56133">
        <ele>214.99</ele>
        <time>2019-03-17T09:53:50Z</time>
      </trkpt>
      <trkpt lat="43.43658" lon="-0.56139">
        <ele>214.99</ele>
        <time>2019-03-17T09:53:51Z</time>
      </trkpt>
      <trkpt lat="43.43661" lon="-0.56146">
        <ele>214.99</ele>
        <time>2019-03-17T09:53:52Z</time>
      </trkpt>
      <trkpt lat="43.43664" lon="-0.56152">
        <ele>214.99</ele>
        <time>2019-03-17T09:53:53Z</time>
      </trkpt>
      <trkpt lat="43.43677" lon="-0.56174">
        <ele>214.99</ele>
        <time>2019-03-17T09:53:57Z</time>
      </trkpt>
      <trkpt lat="43.4368" lon="-0.5618">
        <ele>214.99</ele>
        <time>2019-03-17T09:53:58Z</time>
      </trkpt>
      <trkpt lat="43.43682" lon="-0.56185">
        <ele>214.99</ele>
        <time>2019-03-17T09:53:59Z</time>
      </trkpt>
      <trkpt lat="43.43714" lon="-0.56242">
        <ele>217.88</ele>
        <time>2019-03-17T09:54:12Z</time>
      </trkpt>
      <trkpt lat="43.43745" lon="-0.5629">
        <ele>221.72</ele>
        <time>2019-03-17T09:54:24Z</time>
      </trkpt>
      <trkpt lat="43.43773" lon="-0.56345">
        <ele>226.53</ele>
        <time>2019-03-17T09:54:37Z</time>
      </trkpt>
      <trkpt lat="43.43797" lon="-0.56382">
        <ele>228.45</ele>
        <time>2019-03-17T09:54:47Z</time>
      </trkpt>
      <trkpt lat="43.43808" lon="-0.56413">
        <ele>230.85</ele>
        <time>2019-03-17T09:54:53Z</time>
      </trkpt>
      <trkpt lat="43.43809" lon="-0.56419">
        <ele>230.85</ele>
        <time>2019-03-17T09:54:54Z</time>
      </trkpt>
      <trkpt lat="43.43827" lon="-0.5647">
        <ele>230.37</ele>
        <time>2019-03-17T09:55:02Z</time>
      </trkpt>
      <trkpt lat="43.43829" lon="-0.56476">
        <ele>230.37</ele>
        <time>2019-03-17T09:55:03Z</time>
      </trkpt>
      <trkpt lat="43.4386" lon="-0.56565">
        <ele>229.41</ele>
        <time>2019-03-17T09:55:18Z</time>
      </trkpt>
      <trkpt lat="43.43863" lon="-0.56571">
        <ele>229.41</ele>
        <time>2019-03-17T09:55:19Z</time>
      </trkpt>
      <trkpt lat="43.43878" lon="-0.56619">
        <ele>226.53</ele>
        <time>2019-03-17T09:55:26Z</time>
      </trkpt>
      <trkpt lat="43.43914" lon="-0.56716">
        <ele>220.76</ele>
        <time>2019-03-17T09:55:38Z</time>
      </trkpt>
      <trkpt lat="43.43931" lon="-0.56773">
        <ele>214.99</ele>
        <time>2019-03-17T09:55:46Z</time>
      </trkpt>
      <trkpt lat="43.43936" lon="-0.56786">
        <ele>213.07</ele>
        <time>2019-03-17T09:55:48Z</time>
      </trkpt>
      <trkpt lat="43.43939" lon="-0.56792">
        <ele>212.11</ele>
        <time>2019-03-17T09:55:49Z</time>
      </trkpt>
      <trkpt lat="43.43942" lon="-0.56798">
        <ele>211.63</ele>
        <time>2019-03-17T09:55:50Z</time>
      </trkpt>
      <trkpt lat="43.43945" lon="-0.56805">
        <ele>210.67</ele>
        <time>2019-03-17T09:55:51Z</time>
      </trkpt>
      <trkpt lat="43.43947" lon="-0.56812">
        <ele>209.7</ele>
        <time>2019-03-17T09:55:52Z</time>
      </trkpt>
      <trkpt lat="43.4395" lon="-0.56818">
        <ele>209.22</ele>
        <time>2019-03-17T09:55:53Z</time>
      </trkpt>
      <trkpt lat="43.43953" lon="-0.56824">
        <ele>208.26</ele>
        <time>2019-03-17T09:55:54Z</time>
      </trkpt>
      <trkpt lat="43.43956" lon="-0.56847">
        <ele>204.42</ele>
        <time>2019-03-17T09:55:59Z</time>
      </trkpt>
      <trkpt lat="43.43952" lon="-0.5685">
        <ele>203.46</ele>
        <time>2019-03-17T09:56:00Z</time>
      </trkpt>
      <trkpt lat="43.43944" lon="-0.56858">
        <ele>201.53</ele>
        <time>2019-03-17T09:56:02Z</time>
      </trkpt>
      <trkpt lat="43.43916" lon="-0.56898">
        <ele>192.88</ele>
        <time>2019-03-17T09:56:09Z</time>
      </trkpt>
      <trkpt lat="43.43913" lon="-0.56908">
        <ele>190.48</ele>
        <time>2019-03-17T09:56:11Z</time>
      </trkpt>
      <trkpt lat="43.43913" lon="-0.56913">
        <ele>189.52</ele>
        <time>2019-03-17T09:56:12Z</time>
      </trkpt>
      <trkpt lat="43.43912" lon="-0.56918">
        <ele>188.08</ele>
        <time>2019-03-17T09:56:13Z</time>
      </trkpt>
      <trkpt lat="43.43911" lon="-0.56921">
        <ele>187.11</ele>
        <time>2019-03-17T09:56:14Z</time>
      </trkpt>
      <trkpt lat="43.4391" lon="-0.56925">
        <ele>186.63</ele>
        <time>2019-03-17T09:56:15Z</time>
      </trkpt>
      <trkpt lat="43.43892" lon="-0.56929">
        <ele>184.71</ele>
        <time>2019-03-17T09:56:19Z</time>
      </trkpt>
      <trkpt lat="43.43885" lon="-0.56927">
        <ele>184.23</ele>
        <time>2019-03-17T09:56:20Z</time>
      </trkpt>
      <trkpt lat="43.4388" lon="-0.56925">
        <ele>184.23</ele>
        <time>2019-03-17T09:56:21Z</time>
      </trkpt>
      <trkpt lat="43.43874" lon="-0.56923">
        <ele>183.75</ele>
        <time>2019-03-17T09:56:22Z</time>
      </trkpt>
      <trkpt lat="43.43867" lon="-0.5692">
        <ele>183.75</ele>
        <time>2019-03-17T09:56:23Z</time>
      </trkpt>
      <trkpt lat="43.43859" lon="-0.56919">
        <ele>183.75</ele>
        <time>2019-03-17T09:56:24Z</time>
      </trkpt>
      <trkpt lat="43.43852" lon="-0.56918">
        <ele>183.75</ele>
        <time>2019-03-17T09:56:25Z</time>
      </trkpt>
      <trkpt lat="43.43838" lon="-0.56916">
        <ele>183.75</ele>
        <time>2019-03-17T09:56:27Z</time>
      </trkpt>
      <trkpt lat="43.43832" lon="-0.56913">
        <ele>183.27</ele>
        <time>2019-03-17T09:56:28Z</time>
      </trkpt>
      <trkpt lat="43.43827" lon="-0.56909">
        <ele>183.27</ele>
        <time>2019-03-17T09:56:29Z</time>
      </trkpt>
      <trkpt lat="43.43822" lon="-0.56902">
        <ele>182.79</ele>
        <time>2019-03-17T09:56:30Z</time>
      </trkpt>
      <trkpt lat="43.43817" lon="-0.56895">
        <ele>182.79</ele>
        <time>2019-03-17T09:56:31Z</time>
      </trkpt>
      <trkpt lat="43.43787" lon="-0.56842">
        <ele>180.38</ele>
        <time>2019-03-17T09:56:39Z</time>
      </trkpt>
      <trkpt lat="43.43783" lon="-0.56839">
        <ele>179.9</ele>
        <time>2019-03-17T09:56:40Z</time>
      </trkpt>
      <trkpt lat="43.43777" lon="-0.56838">
        <ele>179.42</ele>
        <time>2019-03-17T09:56:41Z</time>
      </trkpt>
      <trkpt lat="43.43771" lon="-0.56837">
        <ele>178.94</ele>
        <time>2019-03-17T09:56:42Z</time>
      </trkpt>
      <trkpt lat="43.43765" lon="-0.56837">
        <ele>178.46</ele>
        <time>2019-03-17T09:56:43Z</time>
      </trkpt>
      <trkpt lat="43.43759" lon="-0.56836">
        <ele>178.46</ele>
        <time>2019-03-17T09:56:44Z</time>
      </trkpt>
      <trkpt lat="43.43752" lon="-0.56835">
        <ele>177.98</ele>
        <time>2019-03-17T09:56:45Z</time>
      </trkpt>
      <trkpt lat="43.43745" lon="-0.56834">
        <ele>177.5</ele>
        <time>2019-03-17T09:56:46Z</time>
      </trkpt>
      <trkpt lat="43.43731" lon="-0.56833">
        <ele>176.54</ele>
        <time>2019-03-17T09:56:48Z</time>
      </trkpt>
      <trkpt lat="43.43724" lon="-0.56832">
        <ele>176.06</ele>
        <time>2019-03-17T09:56:49Z</time>
      </trkpt>
      <trkpt lat="43.43717" lon="-0.56829">
        <ele>175.58</ele>
        <time>2019-03-17T09:56:50Z</time>
      </trkpt>
      <trkpt lat="43.4371" lon="-0.56825">
        <ele>174.62</ele>
        <time>2019-03-17T09:56:51Z</time>
      </trkpt>
      <trkpt lat="43.43704" lon="-0.5682">
        <ele>173.66</ele>
        <time>2019-03-17T09:56:52Z</time>
      </trkpt>
      <trkpt lat="43.43699" lon="-0.56816">
        <ele>173.17</ele>
        <time>2019-03-17T09:56:53Z</time>
      </trkpt>
      <trkpt lat="43.43693" lon="-0.56813">
        <ele>172.21</ele>
        <time>2019-03-17T09:56:54Z</time>
      </trkpt>
      <trkpt lat="43.43684" lon="-0.56808">
        <ele>170.77</ele>
        <time>2019-03-17T09:56:56Z</time>
      </trkpt>
      <trkpt lat="43.4368" lon="-0.56808">
        <ele>169.81</ele>
        <time>2019-03-17T09:56:57Z</time>
      </trkpt>
      <trkpt lat="43.43678" lon="-0.56811">
        <ele>169.33</ele>
        <time>2019-03-17T09:56:58Z</time>
      </trkpt>
      <trkpt lat="43.43677" lon="-0.56814">
        <ele>169.33</ele>
        <time>2019-03-17T09:56:59Z</time>
      </trkpt>
      <trkpt lat="43.43677" lon="-0.56818">
        <ele>169.33</ele>
        <time>2019-03-17T09:57:00Z</time>
      </trkpt>
      <trkpt lat="43.43677" lon="-0.56821">
        <ele>168.85</ele>
        <time>2019-03-17T09:57:01Z</time>
      </trkpt>
      <trkpt lat="43.43678" lon="-0.56826">
        <ele>168.37</ele>
        <time>2019-03-17T09:57:02Z</time>
      </trkpt>
      <trkpt lat="43.4368" lon="-0.56831">
        <ele>168.37</ele>
        <time>2019-03-17T09:57:03Z</time>
      </trkpt>
      <trkpt lat="43.4369" lon="-0.56861">
        <ele>167.41</ele>
        <time>2019-03-17T09:57:08Z</time>
      </trkpt>
      <trkpt lat="43.43705" lon="-0.56913">
        <ele>166.45</ele>
        <time>2019-03-17T09:57:15Z</time>
      </trkpt>
      <trkpt lat="43.43706" lon="-0.56921">
        <ele>166.45</ele>
        <time>2019-03-17T09:57:16Z</time>
      </trkpt>
      <trkpt lat="43.43706" lon="-0.56928">
        <ele>165.96</ele>
        <time>2019-03-17T09:57:17Z</time>
      </trkpt>
      <trkpt lat="43.43707" lon="-0.56935">
        <ele>165.48</ele>
        <time>2019-03-17T09:57:18Z</time>
      </trkpt>
      <trkpt lat="43.43707" lon="-0.56941">
        <ele>165.48</ele>
        <time>2019-03-17T09:57:19Z</time>
      </trkpt>
      <trkpt lat="43.43707" lon="-0.56947">
        <ele>165.48</ele>
        <time>2019-03-17T09:57:20Z</time>
      </trkpt>
      <trkpt lat="43.4371" lon="-0.57017">
        <ele>162.6</ele>
        <time>2019-03-17T09:57:30Z</time>
      </trkpt>
      <trkpt lat="43.43711" lon="-0.57034">
        <ele>162.12</ele>
        <time>2019-03-17T09:57:32Z</time>
      </trkpt>
      <trkpt lat="43.43715" lon="-0.5705">
        <ele>161.16</ele>
        <time>2019-03-17T09:57:34Z</time>
      </trkpt>
      <trkpt lat="43.4372" lon="-0.57065">
        <ele>160.2</ele>
        <time>2019-03-17T09:57:36Z</time>
      </trkpt>
      <trkpt lat="43.43724" lon="-0.57072">
        <ele>160.2</ele>
        <time>2019-03-17T09:57:37Z</time>
      </trkpt>
      <trkpt lat="43.43764" lon="-0.57173">
        <ele>155.39</ele>
        <time>2019-03-17T09:57:51Z</time>
      </trkpt>
      <trkpt lat="43.4382" lon="-0.57256">
        <ele>154.43</ele>
        <time>2019-03-17T09:58:05Z</time>
      </trkpt>
      <trkpt lat="43.43864" lon="-0.57344">
        <ele>152.03</ele>
        <time>2019-03-17T09:58:20Z</time>
      </trkpt>
      <trkpt lat="43.4387" lon="-0.57362">
        <ele>152.03</ele>
        <time>2019-03-17T09:58:26Z</time>
      </trkpt>
      <trkpt lat="43.43869" lon="-0.57364">
        <ele>152.03</ele>
        <time>2019-03-17T09:58:27Z</time>
      </trkpt>
      <trkpt lat="43.43868" lon="-0.57366">
        <ele>151.54</ele>
        <time>2019-03-17T09:58:28Z</time>
      </trkpt>
      <trkpt lat="43.43866" lon="-0.57367">
        <ele>151.06</ele>
        <time>2019-03-17T09:58:29Z</time>
      </trkpt>
      <trkpt lat="43.43862" lon="-0.5737">
        <ele>150.58</ele>
        <time>2019-03-17T09:58:30Z</time>
      </trkpt>
      <trkpt lat="43.43824" lon="-0.57419">
        <ele>142.89</ele>
        <time>2019-03-17T09:58:40Z</time>
      </trkpt>
      <trkpt lat="43.43775" lon="-0.57522">
        <ele>137.13</ele>
        <time>2019-03-17T09:58:52Z</time>
      </trkpt>
      <trkpt lat="43.43724" lon="-0.57663">
        <ele>134.24</ele>
        <time>2019-03-17T09:59:08Z</time>
      </trkpt>
      <trkpt lat="43.43723" lon="-0.57669">
        <ele>133.76</ele>
        <time>2019-03-17T09:59:09Z</time>
      </trkpt>
      <trkpt lat="43.43723" lon="-0.57677">
        <ele>133.28</ele>
        <time>2019-03-17T09:59:10Z</time>
      </trkpt>
      <trkpt lat="43.43724" lon="-0.57686">
        <ele>132.8</ele>
        <time>2019-03-17T09:59:11Z</time>
      </trkpt>
      <trkpt lat="43.43726" lon="-0.57694">
        <ele>132.32</ele>
        <time>2019-03-17T09:59:12Z</time>
      </trkpt>
      <trkpt lat="43.43728" lon="-0.57703">
        <ele>132.32</ele>
        <time>2019-03-17T09:59:13Z</time>
      </trkpt>
      <trkpt lat="43.43743" lon="-0.57754">
        <ele>131.84</ele>
        <time>2019-03-17T09:59:19Z</time>
      </trkpt>
      <trkpt lat="43.43746" lon="-0.57761">
        <ele>132.32</ele>
        <time>2019-03-17T09:59:20Z</time>
      </trkpt>
      <trkpt lat="43.43776" lon="-0.57829">
        <ele>131.84</ele>
        <time>2019-03-17T09:59:30Z</time>
      </trkpt>
      <trkpt lat="43.43785" lon="-0.57861">
        <ele>131.36</ele>
        <time>2019-03-17T09:59:35Z</time>
      </trkpt>
      <trkpt lat="43.43786" lon="-0.57873">
        <ele>131.36</ele>
        <time>2019-03-17T09:59:37Z</time>
      </trkpt>
      <trkpt lat="43.43787" lon="-0.57915">
        <ele>130.88</ele>
        <time>2019-03-17T09:59:44Z</time>
      </trkpt>
      <trkpt lat="43.43788" lon="-0.57921">
        <ele>130.88</ele>
        <time>2019-03-17T09:59:45Z</time>
      </trkpt>
      <trkpt lat="43.4379" lon="-0.57927">
        <ele>130.88</ele>
        <time>2019-03-17T09:59:46Z</time>
      </trkpt>
      <trkpt lat="43.438" lon="-0.57954">
        <ele>131.84</ele>
        <time>2019-03-17T09:59:51Z</time>
      </trkpt>
      <trkpt lat="43.43837" lon="-0.58036">
        <ele>132.32</ele>
        <time>2019-03-17T10:00:06Z</time>
      </trkpt>
      <trkpt lat="43.4388" lon="-0.58131">
        <ele>131.84</ele>
        <time>2019-03-17T10:00:22Z</time>
      </trkpt>
      <trkpt lat="43.43907" lon="-0.58193">
        <ele>131.84</ele>
        <time>2019-03-17T10:00:32Z</time>
      </trkpt>
      <trkpt lat="43.43909" lon="-0.582">
        <ele>131.84</ele>
        <time>2019-03-17T10:00:33Z</time>
      </trkpt>
      <trkpt lat="43.43946" lon="-0.58283">
        <ele>132.8</ele>
        <time>2019-03-17T10:00:46Z</time>
      </trkpt>
      <trkpt lat="43.43966" lon="-0.58341">
        <ele>134.24</ele>
        <time>2019-03-17T10:00:58Z</time>
      </trkpt>
      <trkpt lat="43.43965" lon="-0.58354">
        <ele>133.76</ele>
        <time>2019-03-17T10:01:01Z</time>
      </trkpt>
      <trkpt lat="43.43963" lon="-0.58357">
        <ele>133.28</ele>
        <time>2019-03-17T10:01:02Z</time>
      </trkpt>
      <trkpt lat="43.4396" lon="-0.58361">
        <ele>133.28</ele>
        <time>2019-03-17T10:01:03Z</time>
      </trkpt>
      <trkpt lat="43.43894" lon="-0.58416">
        <ele>131.84</ele>
        <time>2019-03-17T10:01:20Z</time>
      </trkpt>
      <trkpt lat="43.43825" lon="-0.58482">
        <ele>131.36</ele>
        <time>2019-03-17T10:01:36Z</time>
      </trkpt>
      <trkpt lat="43.43804" lon="-0.58517">
        <ele>129.43</ele>
        <time>2019-03-17T10:01:47Z</time>
      </trkpt>
      <trkpt lat="43.43805" lon="-0.58517">
        <ele>129.43</ele>
        <time>2019-03-17T10:02:02Z</time>
      </trkpt>
      <trkpt lat="43.43803" lon="-0.58518">
        <ele>129.43</ele>
        <time>2019-03-17T10:02:12Z</time>
      </trkpt>
      <trkpt lat="43.43801" lon="-0.58518">
        <ele>129.43</ele>
        <time>2019-03-17T10:02:13Z</time>
      </trkpt>
      <trkpt lat="43.43799" lon="-0.58517">
        <ele>129.43</ele>
        <time>2019-03-17T10:02:14Z</time>
      </trkpt>
      <trkpt lat="43.43797" lon="-0.58516">
        <ele>129.43</ele>
        <time>2019-03-17T10:02:15Z</time>
      </trkpt>
      <trkpt lat="43.43795" lon="-0.58515">
        <ele>129.43</ele>
        <time>2019-03-17T10:02:16Z</time>
      </trkpt>
      <trkpt lat="43.43793" lon="-0.58513">
        <ele>129.43</ele>
        <time>2019-03-17T10:02:17Z</time>
      </trkpt>
      <trkpt lat="43.43791" lon="-0.58512">
        <ele>129.43</ele>
        <time>2019-03-17T10:02:18Z</time>
      </trkpt>
      <trkpt lat="43.43744" lon="-0.58489">
        <ele>127.03</ele>
        <time>2019-03-17T10:02:32Z</time>
      </trkpt>
      <trkpt lat="43.4368" lon="-0.58457">
        <ele>125.59</ele>
        <time>2019-03-17T10:02:48Z</time>
      </trkpt>
      <trkpt lat="43.43611" lon="-0.58424">
        <ele>125.59</ele>
        <time>2019-03-17T10:03:06Z</time>
      </trkpt>
      <trkpt lat="43.4355" lon="-0.58395">
        <ele>125.59</ele>
        <time>2019-03-17T10:03:22Z</time>
      </trkpt>
      <trkpt lat="43.43482" lon="-0.58363">
        <ele>125.11</ele>
        <time>2019-03-17T10:03:39Z</time>
      </trkpt>
      <trkpt lat="43.43478" lon="-0.58362">
        <ele>124.63</ele>
        <time>2019-03-17T10:03:40Z</time>
      </trkpt>
      <trkpt lat="43.43455" lon="-0.58354">
        <ele>123.67</ele>
        <time>2019-03-17T10:03:46Z</time>
      </trkpt>
      <trkpt lat="43.43399" lon="-0.5833">
        <ele>123.19</ele>
        <time>2019-03-17T10:04:02Z</time>
      </trkpt>
      <trkpt lat="43.43358" lon="-0.58311">
        <ele>123.67</ele>
        <time>2019-03-17T10:04:15Z</time>
      </trkpt>
      <trkpt lat="43.43331" lon="-0.58283">
        <ele>127.03</ele>
        <time>2019-03-17T10:04:27Z</time>
      </trkpt>
      <trkpt lat="43.43308" lon="-0.58251">
        <ele>131.84</ele>
        <time>2019-03-17T10:04:41Z</time>
      </trkpt>
      <trkpt lat="43.43294" lon="-0.58219">
        <ele>135.68</ele>
        <time>2019-03-17T10:04:56Z</time>
      </trkpt>
      <trkpt lat="43.43278" lon="-0.58187">
        <ele>138.57</ele>
        <time>2019-03-17T10:05:13Z</time>
      </trkpt>
      <trkpt lat="43.43261" lon="-0.58168">
        <ele>141.93</ele>
        <time>2019-03-17T10:05:28Z</time>
      </trkpt>
      <trkpt lat="43.43243" lon="-0.58166">
        <ele>146.26</ele>
        <time>2019-03-17T10:05:41Z</time>
      </trkpt>
      <trkpt lat="43.43231" lon="-0.58179">
        <ele>148.66</ele>
        <time>2019-03-17T10:05:53Z</time>
      </trkpt>
      <trkpt lat="43.43231" lon="-0.5818">
        <ele>148.66</ele>
        <time>2019-03-17T10:05:54Z</time>
      </trkpt>
      <trkpt lat="43.43223" lon="-0.58202">
        <ele>153.95</ele>
        <time>2019-03-17T10:06:08Z</time>
      </trkpt>
      <trkpt lat="43.43204" lon="-0.58214">
        <ele>157.79</ele>
        <time>2019-03-17T10:06:21Z</time>
      </trkpt>
      <trkpt lat="43.43178" lon="-0.58209">
        <ele>159.72</ele>
        <time>2019-03-17T10:06:37Z</time>
      </trkpt>
      <trkpt lat="43.43167" lon="-0.58206">
        <ele>161.16</ele>
        <time>2019-03-17T10:06:44Z</time>
      </trkpt>
      <trkpt lat="43.43166" lon="-0.58206">
        <ele>161.64</ele>
        <time>2019-03-17T10:06:45Z</time>
      </trkpt>
      <trkpt lat="43.43165" lon="-0.58206">
        <ele>161.64</ele>
        <time>2019-03-17T10:06:46Z</time>
      </trkpt>
      <trkpt lat="43.43163" lon="-0.58206">
        <ele>162.12</ele>
        <time>2019-03-17T10:06:47Z</time>
      </trkpt>
      <trkpt lat="43.43162" lon="-0.58206">
        <ele>162.6</ele>
        <time>2019-03-17T10:06:48Z</time>
      </trkpt>
      <trkpt lat="43.43139" lon="-0.58222">
        <ele>164.04</ele>
        <time>2019-03-17T10:07:02Z</time>
      </trkpt>
      <trkpt lat="43.43112" lon="-0.58243">
        <ele>166.45</ele>
        <time>2019-03-17T10:07:17Z</time>
      </trkpt>
      <trkpt lat="43.43087" lon="-0.58234">
        <ele>165.48</ele>
        <time>2019-03-17T10:07:31Z</time>
      </trkpt>
      <trkpt lat="43.43084" lon="-0.58234">
        <ele>163.56</ele>
        <time>2019-03-17T10:07:50Z</time>
      </trkpt>
      <trkpt lat="43.43085" lon="-0.58233">
        <ele>162.6</ele>
        <time>2019-03-17T10:08:11Z</time>
      </trkpt>
      <trkpt lat="43.43085" lon="-0.58232">
        <ele>162.12</ele>
        <time>2019-03-17T10:08:31Z</time>
      </trkpt>
      <trkpt lat="43.43085" lon="-0.58231">
        <ele>163.08</ele>
        <time>2019-03-17T10:08:56Z</time>
      </trkpt>
      <trkpt lat="43.43085" lon="-0.58233">
        <ele>161.64</ele>
        <time>2019-03-17T10:09:15Z</time>
      </trkpt>
      <trkpt lat="43.43086" lon="-0.58232">
        <ele>160.2</ele>
        <time>2019-03-17T10:09:34Z</time>
      </trkpt>
      <trkpt lat="43.43086" lon="-0.58232">
        <ele>159.24</ele>
        <time>2019-03-17T10:09:53Z</time>
      </trkpt>
      <trkpt lat="43.43086" lon="-0.58233">
        <ele>160.2</ele>
        <time>2019-03-17T10:10:15Z</time>
      </trkpt>
      <trkpt lat="43.43085" lon="-0.58232">
        <ele>161.16</ele>
        <time>2019-03-17T10:10:42Z</time>
      </trkpt>
      <trkpt lat="43.43086" lon="-0.58233">
        <ele>160.2</ele>
        <time>2019-03-17T10:11:07Z</time>
      </trkpt>
      <trkpt lat="43.43085" lon="-0.58233">
        <ele>160.2</ele>
        <time>2019-03-17T10:11:29Z</time>
      </trkpt>
      <trkpt lat="43.43083" lon="-0.58233">
        <ele>160.68</ele>
        <time>2019-03-17T10:11:33Z</time>
      </trkpt>
      <trkpt lat="43.43081" lon="-0.58234">
        <ele>160.68</ele>
        <time>2019-03-17T10:11:34Z</time>
      </trkpt>
      <trkpt lat="43.4308" lon="-0.58235">
        <ele>160.68</ele>
        <time>2019-03-17T10:11:35Z</time>
      </trkpt>
      <trkpt lat="43.43049" lon="-0.58227">
        <ele>159.24</ele>
        <time>2019-03-17T10:11:45Z</time>
      </trkpt>
      <trkpt lat="43.42965" lon="-0.582">
        <ele>151.06</ele>
        <time>2019-03-17T10:11:59Z</time>
      </trkpt>
      <trkpt lat="43.42926" lon="-0.58188">
        <ele>148.18</ele>
        <time>2019-03-17T10:12:04Z</time>
      </trkpt>
      <trkpt lat="43.42826" lon="-0.58188">
        <ele>141.93</ele>
        <time>2019-03-17T10:12:15Z</time>
      </trkpt>
      <trkpt lat="43.42759" lon="-0.58193">
        <ele>138.09</ele>
        <time>2019-03-17T10:12:23Z</time>
      </trkpt>
      <trkpt lat="43.42751" lon="-0.58191">
        <ele>137.61</ele>
        <time>2019-03-17T10:12:24Z</time>
      </trkpt>
      <trkpt lat="43.42743" lon="-0.58187">
        <ele>137.13</ele>
        <time>2019-03-17T10:12:25Z</time>
      </trkpt>
      <trkpt lat="43.42736" lon="-0.58182">
        <ele>136.64</ele>
        <time>2019-03-17T10:12:26Z</time>
      </trkpt>
      <trkpt lat="43.42729" lon="-0.58175">
        <ele>136.64</ele>
        <time>2019-03-17T10:12:27Z</time>
      </trkpt>
      <trkpt lat="43.42723" lon="-0.58168">
        <ele>136.16</ele>
        <time>2019-03-17T10:12:28Z</time>
      </trkpt>
      <trkpt lat="43.42701" lon="-0.58144">
        <ele>136.16</ele>
        <time>2019-03-17T10:12:33Z</time>
      </trkpt>
      <trkpt lat="43.42697" lon="-0.58146">
        <ele>136.16</ele>
        <time>2019-03-17T10:12:34Z</time>
      </trkpt>
      <trkpt lat="43.42694" lon="-0.5815">
        <ele>136.16</ele>
        <time>2019-03-17T10:12:35Z</time>
      </trkpt>
      <trkpt lat="43.42692" lon="-0.58155">
        <ele>136.16</ele>
        <time>2019-03-17T10:12:36Z</time>
      </trkpt>
      <trkpt lat="43.42691" lon="-0.58159">
        <ele>136.16</ele>
        <time>2019-03-17T10:12:37Z</time>
      </trkpt>
      <trkpt lat="43.42682" lon="-0.5822">
        <ele>137.13</ele>
        <time>2019-03-17T10:12:49Z</time>
      </trkpt>
      <trkpt lat="43.42707" lon="-0.58322">
        <ele>138.57</ele>
        <time>2019-03-17T10:13:07Z</time>
      </trkpt>
      <trkpt lat="43.42728" lon="-0.58416">
        <ele>138.57</ele>
        <time>2019-03-17T10:13:23Z</time>
      </trkpt>
      <trkpt lat="43.42726" lon="-0.58443">
        <ele>138.09</ele>
        <time>2019-03-17T10:13:29Z</time>
      </trkpt>
      <trkpt lat="43.42722" lon="-0.58445">
        <ele>137.61</ele>
        <time>2019-03-17T10:13:30Z</time>
      </trkpt>
      <trkpt lat="43.42718" lon="-0.58445">
        <ele>137.13</ele>
        <time>2019-03-17T10:13:31Z</time>
      </trkpt>
      <trkpt lat="43.42714" lon="-0.58444">
        <ele>136.64</ele>
        <time>2019-03-17T10:13:32Z</time>
      </trkpt>
      <trkpt lat="43.4271" lon="-0.58441">
        <ele>136.64</ele>
        <time>2019-03-17T10:13:33Z</time>
      </trkpt>
      <trkpt lat="43.42706" lon="-0.58438">
        <ele>136.16</ele>
        <time>2019-03-17T10:13:34Z</time>
      </trkpt>
      <trkpt lat="43.42698" lon="-0.58434">
        <ele>136.16</ele>
        <time>2019-03-17T10:13:36Z</time>
      </trkpt>
      <trkpt lat="43.42694" lon="-0.58432">
        <ele>136.16</ele>
        <time>2019-03-17T10:13:37Z</time>
      </trkpt>
      <trkpt lat="43.42689" lon="-0.58431">
        <ele>136.16</ele>
        <time>2019-03-17T10:13:38Z</time>
      </trkpt>
      <trkpt lat="43.42684" lon="-0.58431">
        <ele>135.68</ele>
        <time>2019-03-17T10:13:39Z</time>
      </trkpt>
      <trkpt lat="43.4268" lon="-0.58432">
        <ele>135.68</ele>
        <time>2019-03-17T10:13:40Z</time>
      </trkpt>
      <trkpt lat="43.42675" lon="-0.58433">
        <ele>135.68</ele>
        <time>2019-03-17T10:13:41Z</time>
      </trkpt>
      <trkpt lat="43.42633" lon="-0.58448">
        <ele>134.72</ele>
        <time>2019-03-17T10:13:50Z</time>
      </trkpt>
      <trkpt lat="43.42568" lon="-0.58476">
        <ele>133.28</ele>
        <time>2019-03-17T10:14:05Z</time>
      </trkpt>
      <trkpt lat="43.42551" lon="-0.58486">
        <ele>133.28</ele>
        <time>2019-03-17T10:14:09Z</time>
      </trkpt>
      <trkpt lat="43.42548" lon="-0.58489">
        <ele>132.8</ele>
        <time>2019-03-17T10:14:10Z</time>
      </trkpt>
      <trkpt lat="43.4247" lon="-0.58531">
        <ele>130.88</ele>
        <time>2019-03-17T10:14:28Z</time>
      </trkpt>
      <trkpt lat="43.42449" lon="-0.58542">
        <ele>130.4</ele>
        <time>2019-03-17T10:14:33Z</time>
      </trkpt>
      <trkpt lat="43.42375" lon="-0.58555">
        <ele>128.95</ele>
        <time>2019-03-17T10:14:51Z</time>
      </trkpt>
      <trkpt lat="43.42353" lon="-0.58557">
        <ele>128.47</ele>
        <time>2019-03-17T10:14:57Z</time>
      </trkpt>
      <trkpt lat="43.42349" lon="-0.58559">
        <ele>128.47</ele>
        <time>2019-03-17T10:14:58Z</time>
      </trkpt>
      <trkpt lat="43.42345" lon="-0.58561">
        <ele>128.47</ele>
        <time>2019-03-17T10:14:59Z</time>
      </trkpt>
      <trkpt lat="43.42314" lon="-0.58582">
        <ele>127.99</ele>
        <time>2019-03-17T10:15:07Z</time>
      </trkpt>
      <trkpt lat="43.4231" lon="-0.58585">
        <ele>127.99</ele>
        <time>2019-03-17T10:15:08Z</time>
      </trkpt>
      <trkpt lat="43.42308" lon="-0.58589">
        <ele>128.47</ele>
        <time>2019-03-17T10:15:09Z</time>
      </trkpt>
      <trkpt lat="43.42307" lon="-0.58594">
        <ele>128.47</ele>
        <time>2019-03-17T10:15:10Z</time>
      </trkpt>
      <trkpt lat="43.42307" lon="-0.58599">
        <ele>128.47</ele>
        <time>2019-03-17T10:15:11Z</time>
      </trkpt>
      <trkpt lat="43.42308" lon="-0.58604">
        <ele>128.47</ele>
        <time>2019-03-17T10:15:12Z</time>
      </trkpt>
      <trkpt lat="43.4231" lon="-0.58608">
        <ele>128.47</ele>
        <time>2019-03-17T10:15:13Z</time>
      </trkpt>
      <trkpt lat="43.42313" lon="-0.58611">
        <ele>128.47</ele>
        <time>2019-03-17T10:15:14Z</time>
      </trkpt>
      <trkpt lat="43.42316" lon="-0.58615">
        <ele>128.47</ele>
        <time>2019-03-17T10:15:15Z</time>
      </trkpt>
      <trkpt lat="43.42318" lon="-0.58619">
        <ele>128.47</ele>
        <time>2019-03-17T10:15:16Z</time>
      </trkpt>
      <trkpt lat="43.42364" lon="-0.58684">
        <ele>127.99</ele>
        <time>2019-03-17T10:15:33Z</time>
      </trkpt>
      <trkpt lat="43.42396" lon="-0.58734">
        <ele>127.03</ele>
        <time>2019-03-17T10:15:45Z</time>
      </trkpt>
      <trkpt lat="43.42397" lon="-0.58739">
        <ele>127.03</ele>
        <time>2019-03-17T10:15:46Z</time>
      </trkpt>
      <trkpt lat="43.424" lon="-0.58793">
        <ele>127.03</ele>
        <time>2019-03-17T10:15:55Z</time>
      </trkpt>
      <trkpt lat="43.42396" lon="-0.58816">
        <ele>127.99</ele>
        <time>2019-03-17T10:15:59Z</time>
      </trkpt>
      <trkpt lat="43.42388" lon="-0.58845">
        <ele>128.95</ele>
        <time>2019-03-17T10:16:04Z</time>
      </trkpt>
      <trkpt lat="43.42386" lon="-0.58851">
        <ele>129.43</ele>
        <time>2019-03-17T10:16:05Z</time>
      </trkpt>
      <trkpt lat="43.4238" lon="-0.58869">
        <ele>129.43</ele>
        <time>2019-03-17T10:16:08Z</time>
      </trkpt>
      <trkpt lat="43.42353" lon="-0.58892">
        <ele>132.8</ele>
        <time>2019-03-17T10:16:17Z</time>
      </trkpt>
      <trkpt lat="43.4235" lon="-0.58895">
        <ele>132.8</ele>
        <time>2019-03-17T10:16:18Z</time>
      </trkpt>
      <trkpt lat="43.42347" lon="-0.589">
        <ele>132.8</ele>
        <time>2019-03-17T10:16:19Z</time>
      </trkpt>
      <trkpt lat="43.42344" lon="-0.58905">
        <ele>132.8</ele>
        <time>2019-03-17T10:16:20Z</time>
      </trkpt>
      <trkpt lat="43.42315" lon="-0.58975">
        <ele>130.4</ele>
        <time>2019-03-17T10:16:31Z</time>
      </trkpt>
      <trkpt lat="43.42313" lon="-0.58981">
        <ele>130.4</ele>
        <time>2019-03-17T10:16:32Z</time>
      </trkpt>
      <trkpt lat="43.4231" lon="-0.58988">
        <ele>130.4</ele>
        <time>2019-03-17T10:16:33Z</time>
      </trkpt>
      <trkpt lat="43.42295" lon="-0.59015">
        <ele>129.43</ele>
        <time>2019-03-17T10:16:38Z</time>
      </trkpt>
      <trkpt lat="43.42239" lon="-0.59082">
        <ele>127.51</ele>
        <time>2019-03-17T10:16:50Z</time>
      </trkpt>
      <trkpt lat="43.42182" lon="-0.59153">
        <ele>127.99</ele>
        <time>2019-03-17T10:17:02Z</time>
      </trkpt>
      <trkpt lat="43.42112" lon="-0.59206">
        <ele>132.8</ele>
        <time>2019-03-17T10:17:15Z</time>
      </trkpt>
      <trkpt lat="43.42108" lon="-0.59209">
        <ele>132.8</ele>
        <time>2019-03-17T10:17:16Z</time>
      </trkpt>
      <trkpt lat="43.42069" lon="-0.59231">
        <ele>133.28</ele>
        <time>2019-03-17T10:17:25Z</time>
      </trkpt>
      <trkpt lat="43.42003" lon="-0.59266">
        <ele>130.88</ele>
        <time>2019-03-17T10:17:38Z</time>
      </trkpt>
      <trkpt lat="43.41907" lon="-0.59319">
        <ele>125.11</ele>
        <time>2019-03-17T10:17:52Z</time>
      </trkpt>
      <trkpt lat="43.41875" lon="-0.59336">
        <ele>125.11</ele>
        <time>2019-03-17T10:17:58Z</time>
      </trkpt>
      <trkpt lat="43.41869" lon="-0.59337">
        <ele>125.11</ele>
        <time>2019-03-17T10:17:59Z</time>
      </trkpt>
      <trkpt lat="43.41866" lon="-0.59338">
        <ele>125.11</ele>
        <time>2019-03-17T10:18:00Z</time>
      </trkpt>
      <trkpt lat="43.41862" lon="-0.59337">
        <ele>125.11</ele>
        <time>2019-03-17T10:18:01Z</time>
      </trkpt>
      <trkpt lat="43.41857" lon="-0.59336">
        <ele>125.11</ele>
        <time>2019-03-17T10:18:02Z</time>
      </trkpt>
      <trkpt lat="43.41854" lon="-0.59333">
        <ele>125.11</ele>
        <time>2019-03-17T10:18:03Z</time>
      </trkpt>
      <trkpt lat="43.41851" lon="-0.59328">
        <ele>125.59</ele>
        <time>2019-03-17T10:18:04Z</time>
      </trkpt>
      <trkpt lat="43.41849" lon="-0.59322">
        <ele>125.59</ele>
        <time>2019-03-17T10:18:05Z</time>
      </trkpt>
      <trkpt lat="43.41845" lon="-0.5931">
        <ele>125.11</ele>
        <time>2019-03-17T10:18:07Z</time>
      </trkpt>
      <trkpt lat="43.41811" lon="-0.59189">
        <ele>123.19</ele>
        <time>2019-03-17T10:18:24Z</time>
      </trkpt>
      <trkpt lat="43.41766" lon="-0.59063">
        <ele>123.19</ele>
        <time>2019-03-17T10:18:41Z</time>
      </trkpt>
      <trkpt lat="43.41721" lon="-0.58933">
        <ele>122.71</ele>
        <time>2019-03-17T10:18:58Z</time>
      </trkpt>
      <trkpt lat="43.41719" lon="-0.58923">
        <ele>122.71</ele>
        <time>2019-03-17T10:18:59Z</time>
      </trkpt>
      <trkpt lat="43.41713" lon="-0.58885">
        <ele>123.19</ele>
        <time>2019-03-17T10:19:03Z</time>
      </trkpt>
      <trkpt lat="43.41712" lon="-0.58875">
        <ele>123.19</ele>
        <time>2019-03-17T10:19:04Z</time>
      </trkpt>
      <trkpt lat="43.41713" lon="-0.58866">
        <ele>123.19</ele>
        <time>2019-03-17T10:19:05Z</time>
      </trkpt>
      <trkpt lat="43.41713" lon="-0.58858">
        <ele>123.19</ele>
        <time>2019-03-17T10:19:06Z</time>
      </trkpt>
      <trkpt lat="43.41715" lon="-0.5885">
        <ele>122.71</ele>
        <time>2019-03-17T10:19:07Z</time>
      </trkpt>
      <trkpt lat="43.41717" lon="-0.58834">
        <ele>122.71</ele>
        <time>2019-03-17T10:19:09Z</time>
      </trkpt>
      <trkpt lat="43.41717" lon="-0.58826">
        <ele>123.19</ele>
        <time>2019-03-17T10:19:10Z</time>
      </trkpt>
      <trkpt lat="43.41716" lon="-0.58819">
        <ele>123.19</ele>
        <time>2019-03-17T10:19:11Z</time>
      </trkpt>
      <trkpt lat="43.41713" lon="-0.58813">
        <ele>123.19</ele>
        <time>2019-03-17T10:19:12Z</time>
      </trkpt>
      <trkpt lat="43.41711" lon="-0.58807">
        <ele>123.19</ele>
        <time>2019-03-17T10:19:13Z</time>
      </trkpt>
      <trkpt lat="43.41708" lon="-0.58802">
        <ele>123.19</ele>
        <time>2019-03-17T10:19:14Z</time>
      </trkpt>
      <trkpt lat="43.41702" lon="-0.58791">
        <ele>123.67</ele>
        <time>2019-03-17T10:19:16Z</time>
      </trkpt>
      <trkpt lat="43.41673" lon="-0.58725">
        <ele>124.15</ele>
        <time>2019-03-17T10:19:27Z</time>
      </trkpt>
      <trkpt lat="43.41671" lon="-0.58717">
        <ele>124.15</ele>
        <time>2019-03-17T10:19:28Z</time>
      </trkpt>
      <trkpt lat="43.41657" lon="-0.58582">
        <ele>124.15</ele>
        <time>2019-03-17T10:19:43Z</time>
      </trkpt>
      <trkpt lat="43.41655" lon="-0.58573">
        <ele>124.15</ele>
        <time>2019-03-17T10:19:44Z</time>
      </trkpt>
      <trkpt lat="43.41652" lon="-0.58564">
        <ele>124.15</ele>
        <time>2019-03-17T10:19:45Z</time>
      </trkpt>
      <trkpt lat="43.41649" lon="-0.58554">
        <ele>124.15</ele>
        <time>2019-03-17T10:19:46Z</time>
      </trkpt>
      <trkpt lat="43.41646" lon="-0.58546">
        <ele>124.63</ele>
        <time>2019-03-17T10:19:47Z</time>
      </trkpt>
      <trkpt lat="43.41603" lon="-0.58421">
        <ele>125.11</ele>
        <time>2019-03-17T10:20:00Z</time>
      </trkpt>
      <trkpt lat="43.41575" lon="-0.58341">
        <ele>125.59</ele>
        <time>2019-03-17T10:20:08Z</time>
      </trkpt>
      <trkpt lat="43.41548" lon="-0.58255">
        <ele>125.59</ele>
        <time>2019-03-17T10:20:18Z</time>
      </trkpt>
      <trkpt lat="43.41547" lon="-0.58247">
        <ele>125.59</ele>
        <time>2019-03-17T10:20:19Z</time>
      </trkpt>
      <trkpt lat="43.41546" lon="-0.58238">
        <ele>125.59</ele>
        <time>2019-03-17T10:20:20Z</time>
      </trkpt>
      <trkpt lat="43.41543" lon="-0.58212">
        <ele>125.59</ele>
        <time>2019-03-17T10:20:23Z</time>
      </trkpt>
      <trkpt lat="43.41541" lon="-0.58203">
        <ele>126.07</ele>
        <time>2019-03-17T10:20:24Z</time>
      </trkpt>
      <trkpt lat="43.41538" lon="-0.58196">
        <ele>126.07</ele>
        <time>2019-03-17T10:20:25Z</time>
      </trkpt>
      <trkpt lat="43.41506" lon="-0.58109">
        <ele>126.07</ele>
        <time>2019-03-17T10:20:36Z</time>
      </trkpt>
      <trkpt lat="43.41472" lon="-0.58011">
        <ele>126.07</ele>
        <time>2019-03-17T10:20:48Z</time>
      </trkpt>
      <trkpt lat="43.41469" lon="-0.58004">
        <ele>126.07</ele>
        <time>2019-03-17T10:20:49Z</time>
      </trkpt>
      <trkpt lat="43.41461" lon="-0.57975">
        <ele>126.55</ele>
        <time>2019-03-17T10:20:53Z</time>
      </trkpt>
      <trkpt lat="43.41459" lon="-0.57967">
        <ele>126.55</ele>
        <time>2019-03-17T10:20:54Z</time>
      </trkpt>
      <trkpt lat="43.41454" lon="-0.57952">
        <ele>126.55</ele>
        <time>2019-03-17T10:20:56Z</time>
      </trkpt>
      <trkpt lat="43.41448" lon="-0.57928">
        <ele>126.55</ele>
        <time>2019-03-17T10:20:59Z</time>
      </trkpt>
      <trkpt lat="43.41428" lon="-0.57874">
        <ele>127.03</ele>
        <time>2019-03-17T10:21:06Z</time>
      </trkpt>
      <trkpt lat="43.41411" lon="-0.57818">
        <ele>127.03</ele>
        <time>2019-03-17T10:21:13Z</time>
      </trkpt>
      <trkpt lat="43.41408" lon="-0.57811">
        <ele>127.03</ele>
        <time>2019-03-17T10:21:14Z</time>
      </trkpt>
      <trkpt lat="43.414" lon="-0.57799">
        <ele>127.03</ele>
        <time>2019-03-17T10:21:16Z</time>
      </trkpt>
      <trkpt lat="43.41393" lon="-0.57789">
        <ele>127.03</ele>
        <time>2019-03-17T10:21:18Z</time>
      </trkpt>
      <trkpt lat="43.41389" lon="-0.57785">
        <ele>127.03</ele>
        <time>2019-03-17T10:21:19Z</time>
      </trkpt>
      <trkpt lat="43.41384" lon="-0.57781">
        <ele>127.51</ele>
        <time>2019-03-17T10:21:20Z</time>
      </trkpt>
      <trkpt lat="43.41326" lon="-0.57691">
        <ele>127.51</ele>
        <time>2019-03-17T10:21:36Z</time>
      </trkpt>
      <trkpt lat="43.41305" lon="-0.57657">
        <ele>127.99</ele>
        <time>2019-03-17T10:21:42Z</time>
      </trkpt>
      <trkpt lat="43.41286" lon="-0.57624">
        <ele>128.47</ele>
        <time>2019-03-17T10:21:48Z</time>
      </trkpt>
      <trkpt lat="43.41284" lon="-0.57617">
        <ele>128.47</ele>
        <time>2019-03-17T10:21:49Z</time>
      </trkpt>
      <trkpt lat="43.41283" lon="-0.57611">
        <ele>128.95</ele>
        <time>2019-03-17T10:21:50Z</time>
      </trkpt>
      <trkpt lat="43.4128" lon="-0.57585">
        <ele>128.95</ele>
        <time>2019-03-17T10:21:54Z</time>
      </trkpt>
      <trkpt lat="43.41275" lon="-0.57491">
        <ele>128.95</ele>
        <time>2019-03-17T10:22:10Z</time>
      </trkpt>
      <trkpt lat="43.41271" lon="-0.57478">
        <ele>128.95</ele>
        <time>2019-03-17T10:22:14Z</time>
      </trkpt>
      <trkpt lat="43.41268" lon="-0.57477">
        <ele>128.95</ele>
        <time>2019-03-17T10:22:15Z</time>
      </trkpt>
      <trkpt lat="43.41267" lon="-0.57478">
        <ele>128.95</ele>
        <time>2019-03-17T10:22:16Z</time>
      </trkpt>
      <trkpt lat="43.41265" lon="-0.57477">
        <ele>128.95</ele>
        <time>2019-03-17T10:22:17Z</time>
      </trkpt>
      <trkpt lat="43.41264" lon="-0.57477">
        <ele>128.95</ele>
        <time>2019-03-17T10:22:27Z</time>
      </trkpt>
      <trkpt lat="43.41259" lon="-0.57476">
        <ele>129.92</ele>
        <time>2019-03-17T10:22:53Z</time>
      </trkpt>
      <trkpt lat="43.41216" lon="-0.5748">
        <ele>128.95</ele>
        <time>2019-03-17T10:23:04Z</time>
      </trkpt>
      <trkpt lat="43.41149" lon="-0.57496">
        <ele>127.99</ele>
        <time>2019-03-17T10:23:17Z</time>
      </trkpt>
      <trkpt lat="43.41144" lon="-0.57498">
        <ele>127.99</ele>
        <time>2019-03-17T10:23:18Z</time>
      </trkpt>
      <trkpt lat="43.41116" lon="-0.575">
        <ele>127.03</ele>
        <time>2019-03-17T10:23:23Z</time>
      </trkpt>
      <trkpt lat="43.4111" lon="-0.57498">
        <ele>127.03</ele>
        <time>2019-03-17T10:23:24Z</time>
      </trkpt>
      <trkpt lat="43.41104" lon="-0.57494">
        <ele>126.55</ele>
        <time>2019-03-17T10:23:25Z</time>
      </trkpt>
      <trkpt lat="43.411" lon="-0.5749">
        <ele>127.03</ele>
        <time>2019-03-17T10:23:26Z</time>
      </trkpt>
      <trkpt lat="43.41096" lon="-0.57484">
        <ele>126.55</ele>
        <time>2019-03-17T10:23:27Z</time>
      </trkpt>
      <trkpt lat="43.41092" lon="-0.57478">
        <ele>126.55</ele>
        <time>2019-03-17T10:23:28Z</time>
      </trkpt>
      <trkpt lat="43.41088" lon="-0.57471">
        <ele>127.03</ele>
        <time>2019-03-17T10:23:29Z</time>
      </trkpt>
      <trkpt lat="43.41085" lon="-0.57464">
        <ele>127.03</ele>
        <time>2019-03-17T10:23:30Z</time>
      </trkpt>
      <trkpt lat="43.41082" lon="-0.57456">
        <ele>127.03</ele>
        <time>2019-03-17T10:23:31Z</time>
      </trkpt>
      <trkpt lat="43.4108" lon="-0.57449">
        <ele>127.03</ele>
        <time>2019-03-17T10:23:32Z</time>
      </trkpt>
      <trkpt lat="43.41079" lon="-0.57441">
        <ele>127.03</ele>
        <time>2019-03-17T10:23:33Z</time>
      </trkpt>
      <trkpt lat="43.41079" lon="-0.57434">
        <ele>127.03</ele>
        <time>2019-03-17T10:23:34Z</time>
      </trkpt>
      <trkpt lat="43.41078" lon="-0.57427">
        <ele>127.51</ele>
        <time>2019-03-17T10:23:35Z</time>
      </trkpt>
      <trkpt lat="43.41077" lon="-0.57421">
        <ele>127.51</ele>
        <time>2019-03-17T10:23:36Z</time>
      </trkpt>
      <trkpt lat="43.41061" lon="-0.57312">
        <ele>129.92</ele>
        <time>2019-03-17T10:23:52Z</time>
      </trkpt>
      <trkpt lat="43.41057" lon="-0.57297">
        <ele>130.4</ele>
        <time>2019-03-17T10:23:54Z</time>
      </trkpt>
      <trkpt lat="43.41053" lon="-0.57291">
        <ele>130.4</ele>
        <time>2019-03-17T10:23:55Z</time>
      </trkpt>
      <trkpt lat="43.4105" lon="-0.57285">
        <ele>130.4</ele>
        <time>2019-03-17T10:23:56Z</time>
      </trkpt>
      <trkpt lat="43.41046" lon="-0.5728">
        <ele>130.4</ele>
        <time>2019-03-17T10:23:57Z</time>
      </trkpt>
      <trkpt lat="43.41042" lon="-0.57275">
        <ele>130.4</ele>
        <time>2019-03-17T10:23:58Z</time>
      </trkpt>
      <trkpt lat="43.41038" lon="-0.57271">
        <ele>130.4</ele>
        <time>2019-03-17T10:23:59Z</time>
      </trkpt>
      <trkpt lat="43.40994" lon="-0.5721">
        <ele>130.4</ele>
        <time>2019-03-17T10:24:10Z</time>
      </trkpt>
      <trkpt lat="43.40991" lon="-0.57203">
        <ele>130.4</ele>
        <time>2019-03-17T10:24:11Z</time>
      </trkpt>
      <trkpt lat="43.40957" lon="-0.57095">
        <ele>130.4</ele>
        <time>2019-03-17T10:24:25Z</time>
      </trkpt>
      <trkpt lat="43.40933" lon="-0.56989">
        <ele>130.4</ele>
        <time>2019-03-17T10:24:38Z</time>
      </trkpt>
      <trkpt lat="43.40913" lon="-0.56909">
        <ele>130.88</ele>
        <time>2019-03-17T10:24:51Z</time>
      </trkpt>
      <trkpt lat="43.40889" lon="-0.56819">
        <ele>131.84</ele>
        <time>2019-03-17T10:25:07Z</time>
      </trkpt>
      <trkpt lat="43.40872" lon="-0.56741">
        <ele>132.32</ele>
        <time>2019-03-17T10:25:23Z</time>
      </trkpt>
      <trkpt lat="43.40866" lon="-0.56733">
        <ele>131.84</ele>
        <time>2019-03-17T10:25:26Z</time>
      </trkpt>
      <trkpt lat="43.40863" lon="-0.56733">
        <ele>131.84</ele>
        <time>2019-03-17T10:25:27Z</time>
      </trkpt>
      <trkpt lat="43.40795" lon="-0.56746">
        <ele>131.84</ele>
        <time>2019-03-17T10:25:43Z</time>
      </trkpt>
      <trkpt lat="43.40729" lon="-0.56749">
        <ele>132.32</ele>
        <time>2019-03-17T10:25:58Z</time>
      </trkpt>
      <trkpt lat="43.40692" lon="-0.56756">
        <ele>133.76</ele>
        <time>2019-03-17T10:26:08Z</time>
      </trkpt>
      <trkpt lat="43.40691" lon="-0.56753">
        <ele>133.76</ele>
        <time>2019-03-17T10:26:10Z</time>
      </trkpt>
      <trkpt lat="43.40672" lon="-0.56692">
        <ele>133.76</ele>
        <time>2019-03-17T10:26:24Z</time>
      </trkpt>
      <trkpt lat="43.40669" lon="-0.56688">
        <ele>133.76</ele>
        <time>2019-03-17T10:26:25Z</time>
      </trkpt>
      <trkpt lat="43.40656" lon="-0.56673">
        <ele>133.76</ele>
        <time>2019-03-17T10:26:29Z</time>
      </trkpt>
      <trkpt lat="43.40652" lon="-0.5667">
        <ele>133.76</ele>
        <time>2019-03-17T10:26:30Z</time>
      </trkpt>
      <trkpt lat="43.40648" lon="-0.56667">
        <ele>133.76</ele>
        <time>2019-03-17T10:26:31Z</time>
      </trkpt>
      <trkpt lat="43.40643" lon="-0.56664">
        <ele>133.76</ele>
        <time>2019-03-17T10:26:32Z</time>
      </trkpt>
      <trkpt lat="43.40639" lon="-0.56662">
        <ele>134.24</ele>
        <time>2019-03-17T10:26:33Z</time>
      </trkpt>
      <trkpt lat="43.40582" lon="-0.56641">
        <ele>133.76</ele>
        <time>2019-03-17T10:26:48Z</time>
      </trkpt>
      <trkpt lat="43.40529" lon="-0.56665">
        <ele>133.76</ele>
        <time>2019-03-17T10:27:02Z</time>
      </trkpt>
      <trkpt lat="43.40487" lon="-0.56679">
        <ele>133.28</ele>
        <time>2019-03-17T10:27:16Z</time>
      </trkpt>
      <trkpt lat="43.40484" lon="-0.56684">
        <ele>133.28</ele>
        <time>2019-03-17T10:27:24Z</time>
      </trkpt>
      <trkpt lat="43.40486" lon="-0.56687">
        <ele>133.76</ele>
        <time>2019-03-17T10:27:28Z</time>
      </trkpt>
      <trkpt lat="43.40485" lon="-0.56685">
        <ele>133.76</ele>
        <time>2019-03-17T10:27:30Z</time>
      </trkpt>
    </trkseg>
  </trk>
</gpx>